Data for 10/26/2009

Time Sea-Level Adjusted Pressure Absolute Pressure Temperature Relative Humidity Dew Point Precipitation   
(mb) (inHg) (mb) (inHg) (C) (F) (%) (C) (F) (mm) (in)
00:01 1023 30.21 852 25.16 -4.1 24.5 66 -9.7 14.6 -3.976 -0.157
00:02 1023 30.21 852 25.16 -4.2 24.5 66 -9.5 14.8 -3.976 -0.157
00:03 1023 30.21 852 25.16 -4.1 24.6 65 -9.7 14.5 -3.925 -0.155
00:04 1023 30.21 852 25.16 -4.3 24.3 67 -9.6 14.7 -4.032 -0.159
00:05 1023 30.21 852 25.16 -4.4 24 68 -9.5 14.9 -4.174 -0.164
00:06 1023 30.21 852 25.16 -4.6 23.8 69 -9.4 15 -4.253 -0.167
00:07 1023 30.21 852 25.16 -4.7 23.6 70 -9.4 15.1 -4.338 -0.171
00:08 1023 30.21 852 25.16 -4.8 23.3 70 -9.4 15.1 -4.49 -0.177
00:09 1023 30.21 852 25.16 -5 23 71 -9.5 15 -4.649 -0.183
00:10 1023 30.21 852 25.16 -5.1 22.8 72 -9.5 15 -4.745 -0.187
00:11 1023 30.21 852 25.16 -5.3 22.5 72 -9.6 14.8 -4.863 -0.191
00:12 1023 30.21 852 25.16 -5.4 22.3 73 -9.4 15 -5.101 -0.201
00:13 1023 30.21 852 25.16 -5.6 22 75 -9.4 15.1 -5.186 -0.204
00:14 1023 30.21 852 25.16 -5.6 22 74 -9.4 15 -5.225 -0.206
00:15 1023 30.21 852 25.16 -5.3 22.5 71 -9.8 14.4 -4.964 -0.195
00:16 1023 30.21 852 25.16 -4.7 23.5 67 -10 14 -4.397 -0.173
00:17 1023 30.21 852 25.16 -4.2 24.5 64 -10 14 -3.899 -0.154
00:18 1023 30.21 852 25.16 -3.8 25.1 63 -9.9 14.2 -3.593 -0.141
00:19 1023 30.21 852 25.16 -3.7 25.3 63 -9.8 14.4 -3.53 -0.139
00:20 1023 30.21 852 25.16 -3.7 25.3 64 -9.7 14.6 -3.535 -0.139
00:21 1023 30.21 852 25.16 -3.7 25.3 64 -9.6 14.8 -3.53 -0.139
00:22 1023 30.21 852 25.16 -3.7 25.4 64 -9.5 15 -3.467 -0.136
00:23 1022 30.18 852 25.16 -3.7 25.4 65 -9.4 15.1 -3.473 -0.137
00:24 1022 30.18 852 25.16 -3.7 25.4 64 -9.6 14.7 -3.45 -0.136
00:25 1022 30.18 852 25.16 -3.6 25.5 62 -9.8 14.3 -3.421 -0.135
00:26 1022 30.18 852 25.16 -3.6 25.5 63 -9.7 14.6 -3.397 -0.134
00:27 1022 30.18 852 25.16 -3.7 25.4 63 -9.6 14.6 -3.437 -0.135
00:28 1023 30.21 852 25.16 -3.7 25.4 63 -9.8 14.4 -3.465 -0.136
00:29 1022 30.18 852 25.16 -3.5 25.7 62 -9.9 14.2 -3.334 -0.131
00:30 1022 30.18 852 25.16 -3.4 25.9 62 -9.7 14.6 -3.215 -0.127
00:31 1022 30.18 852 25.16 -3.4 25.9 61 -9.8 14.3 -3.175 -0.125
00:32 1022 30.18 852 25.16 -3.4 26 61 -9.8 14.3 -3.129 -0.123
00:33 1022 30.18 851 25.13 -3.3 26 61 -9.7 14.5 -3.101 -0.122
00:34 1022 30.18 851 25.13 -3.5 25.7 62 -9.7 14.5 -3.264 -0.129
00:35 1022 30.18 851 25.13 -3.8 25.2 64 -9.7 14.5 -3.502 -0.138
00:36 1022 30.18 851 25.13 -4 24.8 64 -9.9 14.2 -3.74 -0.147
00:37 1022 30.18 851 25.13 -4.4 24.2 66 -9.8 14.3 -4.051 -0.159
00:38 1022 30.18 851 25.13 -4.5 23.9 66 -9.9 14.2 -4.238 -0.167
00:39 1022 30.18 851 25.13 -4.5 23.9 66 -9.9 14.2 -4.232 -0.167
00:40 1022 30.18 851 25.13 -4.6 23.8 67 -9.9 14.3 -4.289 -0.169
00:41 1022 30.18 851 25.13 -4.6 23.7 68 -9.6 14.7 -4.283 -0.169
00:42 1022 30.18 851 25.13 -4.6 23.8 67 -9.8 14.4 -4.317 -0.17
00:43 1022 30.18 851 25.13 -4.4 24 67 -9.7 14.5 -4.186 -0.165
00:44 1022 30.18 851 25.13 -4.4 24.2 66 -9.8 14.3 -4.101 -0.161
00:45 1022 30.18 851 25.13 -4.3 24.3 66 -9.8 14.4 -4.044 -0.159
00:46 1022 30.18 851 25.13 -4.3 24.3 65 -9.9 14.3 -4.01 -0.158
00:47 1022 30.18 851 25.13 -4.2 24.5 66 -9.6 14.8 -3.948 -0.155
00:48 1022 30.18 851 25.13 -4.4 24.1 68 -9.5 14.9 -4.095 -0.161
00:49 1022 30.18 851 25.13 -4.6 23.8 69 -9.5 14.9 -4.259 -0.168
00:50 1022 30.18 851 25.13 -4.7 23.6 68 -9.7 14.6 -4.367 -0.172
00:51 1022 30.18 851 25.13 -4.6 23.8 67 -9.8 14.4 -4.265 -0.168
00:52 1022 30.18 851 25.13 -4.3 24.2 65 -9.9 14.2 -4.072 -0.16
00:53 1022 30.18 851 25.13 -4 24.8 63 -9.9 14.1 -3.726 -0.147
00:54 1022 30.18 851 25.13 -3.7 25.4 63 -9.7 14.5 -3.375 -0.133
00:55 1022 30.18 851 25.13 -3.4 25.8 62 -9.8 14.4 -3.142 -0.124
00:56 1022 30.18 851 25.13 -3.2 26.2 60 -9.9 14.2 -2.916 -0.115
00:57 1022 30.18 851 25.13 -3 26.6 59 -9.9 14.2 -2.74 -0.108
00:58 1022 30.18 851 25.13 -2.8 27 58 -9.9 14.2 -2.513 -0.099
00:59 1022 30.18 851 25.13 -2.5 27.4 57 -9.9 14.1 -2.224 -0.088
01:00 1022 30.18 851 25.13 -2.3 27.8 57 -9.8 14.3 -2.02 -0.08
01:01 1022 30.18 851 25.13 -2.2 28 56 -9.9 14.1 -1.913 -0.075
01:02 1022 30.18 851 25.13 -2 28.3 55 -10 14 -1.782 -0.07
01:03 1022 30.18 851 25.13 -2 28.4 56 -9.6 14.7 -1.686 -0.066
01:04 1022 30.18 851 25.13 -2 28.4 56 -9.6 14.7 -1.731 -0.068
01:05 1022 30.18 851 25.13 -2.1 28.2 56 -9.7 14.5 -1.81 -0.071
01:06 1022 30.18 851 25.13 -2.1 28.1 56 -9.7 14.5 -1.827 -0.072
01:07 1022 30.18 851 25.13 -2.2 28 57 -9.6 14.6 -1.884 -0.074
01:08 1022 30.18 851 25.13 -2.3 27.8 58 -9.6 14.8 -1.997 -0.079
01:09 1022 30.18 851 25.13 -2.5 27.5 58 -9.6 14.7 -2.128 -0.084
01:10 1022 30.18 851 25.13 -2.6 27.3 59 -9.6 14.7 -2.224 -0.088
01:11 1022 30.18 851 25.13 -2.7 27.2 58 -9.8 14.4 -2.275 -0.09
01:12 1022 30.18 851 25.13 -2.6 27.3 58 -9.8 14.4 -2.247 -0.088
01:13 1022 30.18 851 25.13 -2.6 27.4 57 -9.8 14.3 -2.179 -0.086
01:14 1022 30.18 851 25.13 -2.5 27.6 58 -9.7 14.5 -2.128 -0.084
01:15 1022 30.18 851 25.13 -2.4 27.7 57 -9.7 14.5 -2.054 -0.081
01:16 1022 30.18 851 25.13 -2.4 27.7 58 -9.6 14.6 -2.014 -0.079
01:17 1022 30.18 851 25.13 -2.3 27.8 59 -9.4 15.1 -1.969 -0.078
01:18 1022 30.18 851 25.13 -2.3 27.8 59 -9.3 15.2 -2.003 -0.079
01:19 1022 30.18 851 25.13 -2.5 27.6 60 -9.2 15.4 -2.071 -0.082
01:20 1022 30.18 851 25.13 -2.5 27.5 59 -9.4 15.1 -2.128 -0.084
01:21 1022 30.18 851 25.13 -2.5 27.4 61 -9 15.8 -2.15 -0.085
01:22 1022 30.18 851 25.13 -2.7 27.2 62 -9 15.9 -2.298 -0.09
01:23 1022 30.18 851 25.13 -2.9 26.9 63 -8.9 15.9 -2.479 -0.098
01:24 1022 30.18 851 25.13 -3 26.6 64 -8.9 15.9 -2.598 -0.102
01:25 1022 30.18 851 25.13 -3.1 26.4 64 -9 15.8 -2.694 -0.106
01:26 1022 30.18 851 25.13 -3.2 26.3 64 -9.1 15.7 -2.734 -0.108
01:27 1022 30.18 851 25.13 -3 26.7 63 -9.1 15.6 -2.632 -0.104
01:28 1022 30.18 851 25.13 -2.8 26.9 63 -8.8 16.1 -2.513 -0.099
01:29 1022 30.18 851 25.13 -2.8 26.9 63 -9 15.8 -2.484 -0.098
01:30 1022 30.18 851 25.13 -2.8 27 62 -9 15.9 -2.439 -0.096
01:31 1022 30.18 851 25.13 -2.7 27.2 63 -8.8 16.2 -2.399 -0.094
01:32 1022 30.18 851 25.13 -2.8 27 63 -8.9 15.9 -2.433 -0.096
01:33 1022 30.18 851 25.13 -2.8 26.9 64 -8.7 16.3 -2.479 -0.098
01:34 1022 30.18 851 25.13 -2.9 26.8 65 -8.6 16.5 -2.552 -0.1
01:35 1022 30.18 851 25.13 -3 26.7 65 -8.6 16.6 -2.581 -0.102
01:36 1022 30.18 851 25.13 -3 26.6 66 -8.5 16.6 -2.592 -0.102
01:37 1022 30.18 851 25.13 -3 26.5 67 -8.4 17 -2.666 -0.105
01:38 1022 30.18 851 25.13 -3.1 26.3 68 -8.2 17.2 -2.734 -0.108
01:39 1022 30.18 851 25.13 -3.2 26.2 69 -8.2 17.3 -2.79 -0.11
01:40 1022 30.18 851 25.13 -3.3 26 69 -8.1 17.3 -2.904 -0.114
01:41 1022 30.18 851 25.13 -3.4 26 69 -8.2 17.2 -2.921 -0.115
01:42 1022 30.18 851 25.13 -3.4 25.9 67 -8.7 16.4 -2.939 -0.116
01:43 1022 30.18 851 25.13 -3.2 26.2 66 -8.6 16.4 -2.865 -0.113
01:44 1022 30.18 851 25.13 -3.1 26.3 65 -8.9 15.9 -2.741 -0.108
01:45 1022 30.18 851 25.13 -3 26.6 65 -8.8 16.2 -2.616 -0.103
01:46 1022 30.18 851 25.13 -2.9 26.7 65 -8.6 16.5 -2.536 -0.1
01:47 1021 30.15 851 25.13 -2.9 26.8 65 -8.6 16.5 -2.543 -0.1
01:48 1021 30.15 851 25.13 -2.8 26.9 63 -8.8 16.1 -2.453 -0.097
01:49 1022 30.18 851 25.13 -2.8 27 65 -8.4 16.8 -2.458 -0.097
01:50 1022 30.18 851 25.13 -2.8 26.9 67 -8.2 17.2 -2.464 -0.097
01:51 1022 30.18 851 25.13 -2.9 26.7 67 -8.3 17.1 -2.584 -0.102
01:52 1021 30.15 851 25.13 -3 26.6 66 -8.4 16.8 -2.595 -0.102
01:53 1021 30.15 851 25.13 -2.9 26.7 67 -8.2 17.2 -2.561 -0.101
01:54 1021 30.15 851 25.13 -2.9 26.7 66 -8.4 17 -2.556 -0.101
01:55 1021 30.15 851 25.13 -2.9 26.8 65 -8.6 16.5 -2.494 -0.098
01:56 1021 30.15 851 25.13 -2.7 27.1 67 -8 17.7 -2.392 -0.094
01:57 1021 30.15 851 25.13 -2.8 27 69 -7.7 18.2 -2.409 -0.095
01:58 1021 30.15 851 25.13 -2.8 26.9 71 -7.5 18.6 -2.426 -0.096
01:59 1021 30.15 851 25.13 -2.9 26.7 70 -7.6 18.3 -2.483 -0.098
02:00 1021 30.15 851 25.13 -2.9 26.8 69 -7.9 17.8 -2.495 -0.098
02:01 1021 30.15 851 25.13 -2.8 27 64 -8.7 16.3 -2.415 -0.095
02:02 1021 30.15 850 25.1 -2.5 27.5 63 -8.7 16.3 -2.2 -0.087
02:03 1021 30.15 850 25.1 -2.3 27.9 63 -8.4 16.9 -2.03 -0.08
02:04 1021 30.15 850 25.1 -2.2 28 64 -8 17.5 -1.906 -0.075
02:05 1021 30.15 850 25.1 -2.2 28 64 -8 17.6 -1.861 -0.073
02:06 1021 30.15 850 25.1 -2.1 28.2 64 -8.1 17.5 -1.759 -0.069
02:07 1021 30.15 850 25.1 -2.1 28.2 63 -8.2 17.2 -1.685 -0.066
02:08 1021 30.15 850 25.1 -1.9 28.5 61 -8.5 16.7 -1.629 -0.064
02:09 1021 30.15 850 25.1 -1.8 28.8 59 -8.8 16.1 -1.442 -0.057
02:10 1021 30.15 850 25.1 -1.6 29.2 62 -7.9 17.9 -1.306 -0.051
02:11 1021 30.15 850 25.1 -1.6 29.2 65 -7.2 19 -1.249 -0.049
02:12 1021 30.15 850 25.1 -1.6 29.1 61 -8.2 17.3 -1.255 -0.049
02:13 1021 30.15 850 25.1 -1.5 29.4 58 -8.8 16.2 -1.13 -0.044
02:14 1021 30.15 850 25.1 -1.2 29.9 57 -8.6 16.4 -0.853 -0.034
02:15 1021 30.15 850 25.1 -1 30.1 58 -8.3 17.1 -0.722 -0.028
02:16 1021 30.15 850 25.1 -1 30.2 56 -8.7 16.3 -0.666 -0.026
02:17 1021 30.15 850 25.1 -0.9 30.3 55 -9 15.9 -0.587 -0.023
02:18 1021 30.15 850 25.1 -0.8 30.5 55 -8.9 16 -0.502 -0.02
02:19 1021 30.15 850 25.1 -0.7 30.7 53 -9.2 15.4 -0.371 -0.015
02:20 1021 30.15 850 25.1 -0.6 30.9 52 -9.2 15.5 -0.269 -0.011
02:21 1021 30.15 850 25.1 -0.5 31 51 -9.5 14.8 -0.218 -0.009
02:22 1021 30.15 850 25.1 -0.5 31.2 53 -8.9 15.9 -0.117 -0.005
02:23 1021 30.15 850 25.1 -0.5 31.2 54 -8.7 16.3 -0.089 -0.004
02:24 1021 30.15 850 25.1 -0.5 31.2 56 -8.3 17.1 -0.123 -0.005
02:25 1021 30.15 850 25.1 -0.5 31.1 55 -8.5 16.7 -0.141 -0.006
02:26 1021 30.15 850 25.1 -0.6 30.9 55 -8.5 16.7 -0.181 -0.007
02:27 1021 30.15 850 25.1 -0.6 30.9 57 -8 17.6 -0.278 -0.011
02:28 1021 30.15 850 25.1 -0.7 30.7 58 -7.9 17.7 -0.318 -0.013
02:29 1021 30.15 850 25.1 -0.8 30.6 58 -8.1 17.4 -0.369 -0.015
02:30 1021 30.15 850 25.1 -0.9 30.5 59 -7.8 18 -0.431 -0.017
02:31 1021 30.15 850 25.1 -0.8 30.5 57 -8.3 17.1 -0.403 -0.016
02:32 1021 30.15 850 25.1 -0.8 30.5 59 -7.9 17.8 -0.438 -0.017
02:33 1021 30.15 850 25.1 -0.8 30.5 60 -7.7 18.1 -0.432 -0.017
02:34 1021 30.15 850 25.1 -0.9 30.4 60 -7.7 18.2 -0.495 -0.019
02:35 1021 30.15 850 25.1 -1 30.3 59 -7.9 17.7 -0.54 -0.021
02:36 1021 30.15 850 25.1 -0.9 30.4 58 -8.2 17.3 -0.546 -0.021
02:37 1021 30.15 850 25.1 -0.9 30.5 58 -8 17.5 -0.495 -0.019
02:38 1021 30.15 850 25.1 -0.8 30.5 61 -7.4 18.7 -0.45 -0.018
02:39 1021 30.15 850 25.1 -0.9 30.4 61 -7.6 18.3 -0.496 -0.02
02:40 1021 30.15 850 25.1 -0.9 30.3 61 -7.6 18.3 -0.552 -0.022
02:41 1021 30.15 850 25.1 -0.9 30.3 63 -7.2 19.1 -0.547 -0.022
02:42 1021 30.15 850 25.1 -1 30.2 64 -7.1 19.3 -0.57 -0.022
02:43 1021 30.15 850 25.1 -1.1 30.1 64 -7.1 19.3 -0.615 -0.024
02:44 1021 30.15 850 25.1 -1.1 30 65 -6.9 19.5 -0.655 -0.026
02:45 1021 30.15 850 25.1 -1.1 29.9 63 -7.2 19 -0.717 -0.028
02:46 1021 30.15 850 25.1 -1.1 30.1 57 -8.5 16.7 -0.666 -0.026
02:47 1020 30.12 850 25.1 -0.9 30.4 56 -8.6 16.5 -0.519 -0.02
02:48 1020 30.12 850 25.1 -0.7 30.7 56 -8.3 17 -0.4 -0.016
02:49 1020 30.12 850 25.1 -0.6 30.9 55 -8.5 16.8 -0.281 -0.011
02:50 1020 30.12 850 25.1 -0.5 31 57 -8.1 17.4 -0.225 -0.009
02:51 1020 30.12 850 25.1 -0.5 31 56 -8.2 17.2 -0.134 -0.005
02:52 1020 30.12 850 25.1 -0.5 31.2 58 -7.7 18.2 -0.1 -0.004
02:53 1020 30.12 849 25.07 -0.5 31.1 58 -7.8 18 -0.112 -0.004
02:54 1020 30.12 850 25.1 -0.5 31.1 59 -7.6 18.3 -0.089 -0.004
02:55 1020 30.12 850 25.1 -0.5 31.1 58 -7.8 18 -0.129 -0.005
02:56 1020 30.12 849 25.07 -0.5 31 58 -7.8 18 -0.146 -0.006
02:57 1020 30.12 849 25.07 -0.5 31.1 59 -7.7 18.2 -0.123 -0.005
02:58 1020 30.12 849 25.07 -0.5 31.1 59 -7.6 18.4 -0.112 -0.004
02:59 1020 30.12 849 25.07 -0.5 31.1 56 -8.2 17.2 -0.095 -0.004
03:00 1020 30.12 849 25.07 -0.4 31.3 55 -8.3 17.1 -0.055 -0.002
03:01 1020 30.12 849 25.07 -0.4 31.4 56 -8.2 17.2 0.024 0.001
03:02 1020 30.12 849 25.07 -0.3 31.5 55 -8.2 17.2 0.041 0.002
03:03 1020 30.12 849 25.07 -0.3 31.5 56 -8 17.6 0.086 0.003
03:04 1020 30.12 849 25.07 -0.2 31.6 57 -7.7 18.2 0.171 0.007
03:05 1020 30.12 849 25.07 -0.2 31.6 57 -7.8 17.9 0.149 0.006
03:06 1020 30.12 849 25.07 -0.2 31.6 56 -7.9 17.8 0.183 0.007
03:07 1020 30.12 849 25.07 -0.2 31.6 58 -7.4 18.6 0.211 0.008
03:08 1020 30.12 849 25.07 -0.2 31.6 58 -7.5 18.5 0.16 0.006
03:09 1020 30.12 849 25.07 -0.3 31.5 59 -7.4 18.7 0.154 0.006
03:10 1020 30.12 849 25.07 -0.2 31.6 56 -7.9 17.7 0.125 0.005
03:11 1020 30.12 849 25.07 -0.2 31.6 57 -7.7 18.1 0.159 0.006
03:12 1020 30.12 849 25.07 -0.2 31.7 57 -7.8 18 0.215 0.008
03:13 1020 30.12 849 25.07 -0.2 31.7 55 -8 17.5 0.214 0.008
03:14 1020 30.12 849 25.07 -0.2 31.7 56 -7.9 17.8 0.254 0.01
03:15 1020 30.12 849 25.07 -0.1 31.8 56 -7.8 18 0.276 0.011
03:16 1020 30.12 849 25.07 -0.1 31.8 57 -7.7 18.2 0.275 0.011
03:17 1020 30.12 849 25.07 -0.1 31.7 56 -7.9 17.7 0.287 0.011
03:18 1020 30.12 849 25.07 -0.1 31.8 57 -7.6 18.3 0.247 0.01
03:19 1020 30.12 849 25.07 -0.2 31.7 59 -7.2 19 0.235 0.009
03:20 1020 30.12 849 25.07 -0.2 31.6 61 -6.9 19.6 0.207 0.008
03:21 1020 30.12 849 25.07 -0.3 31.5 62 -6.8 19.8 0.15 0.006
03:22 1020 30.12 849 25.07 -0.4 31.2 63 -6.7 20 0.07 0.003
03:23 1020 30.12 849 25.07 -0.5 31.1 63 -6.6 20.1 -0.015 -0.001
03:24 1020 30.12 849 25.07 -0.5 31 64 -6.6 20.1 -0.083 -0.003
03:25 1020 30.12 849 25.07 -0.6 30.9 64 -6.7 20 -0.145 -0.006
03:26 1020 30.12 849 25.07 -0.6 30.9 62 -7 19.4 -0.157 -0.006
03:27 1020 30.12 849 25.07 -0.6 31 61 -7.3 18.9 -0.163 -0.006
03:28 1020 30.12 849 25.07 -0.5 31.1 58 -7.8 18 -0.129 -0.005
03:29 1020 30.12 849 25.07 -0.4 31.2 58 -7.6 18.2 -0.061 -0.002
03:30 1020 30.12 849 25.07 -0.4 31.3 58 -7.6 18.3 0.007 0
03:31 1020 30.12 849 25.07 -0.3 31.5 57 -7.8 18 0.086 0.003
03:32 1020 30.12 849 25.07 -0.2 31.6 58 -7.6 18.3 0.092 0.004
03:33 1020 30.12 849 25.07 -0.2 31.6 58 -7.5 18.4 0.141 0.006
03:34 1020 30.12 849 25.07 -0.2 31.7 57 -7.8 18 0.147 0.006
03:35 1020 30.12 849 25.07 -0.2 31.7 59 -7.3 18.8 0.22 0.009
03:36 1020 30.12 849 25.07 -0.2 31.7 59 -7.3 18.8 0.219 0.009
03:37 1020 30.12 849 25.07 -0.2 31.7 59 -7.3 18.9 0.219 0.009
03:38 1020 30.12 849 25.07 -0.2 31.6 59 -7.2 19.1 0.219 0.009
03:39 1020 30.12 849 25.07 -0.2 31.6 60 -7.1 19.2 0.229 0.009
03:40 1020 30.12 849 25.07 -0.2 31.7 60 -7.1 19.2 0.19 0.007
03:41 1020 30.12 849 25.07 -0.2 31.6 58 -7.5 18.6 0.19 0.007
03:42 1020 30.12 849 25.07 -0.2 31.7 59 -7.2 19 0.206 0.008
03:43 1020 30.12 849 25.07 -0.1 31.8 60 -7.1 19.3 0.246 0.01
03:44 1020 30.12 849 25.07 -0.1 31.7 60 -6.9 19.6 0.251 0.01
03:45 1020 30.12 849 25.07 -0.2 31.7 62 -6.6 20 0.262 0.01
03:46 1020 30.12 849 25.07 -0.2 31.7 61 -6.7 19.9 0.234 0.009
03:47 1020 30.12 849 25.07 -0.2 31.6 60 -6.9 19.5 0.194 0.008
03:48 1020 30.12 849 25.07 -0.2 31.6 60 -7 19.3 0.193 0.008
03:49 1020 30.12 849 25.07 -0.2 31.7 60 -7 19.4 0.227 0.009
03:50 1020 30.12 849 25.07 -0.2 31.7 60 -7.1 19.2 0.278 0.011
03:51 1020 30.12 849 25.07 -0.1 31.9 61 -6.8 19.8 0.295 0.012
03:52 1020 30.12 849 25.07 -0.1 31.8 64 -6.2 20.8 0.301 0.012
03:53 1020 30.12 849 25.07 -0.2 31.7 63 -6.4 20.6 0.221 0.009
03:54 1020 30.12 849 25.07 -0.2 31.7 63 -6.4 20.5 0.187 0.007
03:55 1020 30.12 849 25.07 -0.2 31.6 62 -6.7 20 0.221 0.009
03:56 1020 30.12 849 25.07 -0.2 31.6 61 -6.8 19.7 0.198 0.008
03:57 1020 30.12 849 25.07 -0.2 31.6 60 -7 19.4 0.192 0.008
03:58 1020 30.12 849 25.07 -0.2 31.7 60 -7 19.4 0.226 0.009
03:59 1020 30.12 849 25.07 -0.1 31.8 61 -6.7 19.9 0.277 0.011
04:00 1020 30.12 849 25.07 -0.1 31.9 61 -6.6 20.1 0.3 0.012
04:01 1020 30.12 849 25.07 -0.1 31.9 61 -6.6 20.1 0.283 0.011
04:02 1020 30.12 849 25.07 -0.1 31.9 61 -6.7 20 0.283 0.011
04:03 1020 30.12 849 25.07 -0.1 31.9 60 -7 19.4 0.322 0.013
04:04 1020 30.12 849 25.07 0 32 59 -7 19.4 0.39 0.015
04:05 1020 30.12 849 25.07 0.1 32.1 59 -7 19.4 0.436 0.017
04:06 1020 30.12 849 25.07 0.1 32.2 57 -7.3 18.8 0.503 0.02
04:07 1020 30.12 849 25.07 0.2 32.3 58 -7.1 19.1 0.554 0.022
04:08 1019 30.09 849 25.07 0.3 32.5 57 -7.2 19.1 0.605 0.024
04:09 1020 30.12 849 25.07 0.3 32.5 57 -7.2 19 0.645 0.025
04:10 1019 30.09 849 25.07 0.4 32.6 53 -8.1 17.4 0.713 0.028
04:11 1019 30.09 849 25.07 0.4 32.7 54 -7.8 18 0.758 0.03
04:12 1019 30.09 849 25.07 0.5 32.9 55 -7.5 18.5 0.843 0.033
04:13 1019 30.09 849 25.07 0.5 32.9 54 -7.7 18.2 0.888 0.035
04:14 1019 30.09 849 25.07 0.6 33 55 -7.4 18.6 0.922 0.036
04:15 1019 30.09 849 25.07 0.6 33 55 -7.5 18.6 0.9 0.035
04:16 1019 30.09 849 25.07 0.6 33 55 -7.5 18.5 0.922 0.036
04:17 1019 30.09 849 25.07 0.6 33.1 55 -7.5 18.5 0.939 0.037
04:18 1019 30.09 849 25.07 0.6 33.1 55 -7.3 18.8 0.99 0.039
04:19 1019 30.09 849 25.07 0.6 33.1 54 -7.6 18.2 0.973 0.038
04:20 1019 30.09 849 25.07 0.7 33.2 51 -8.3 17 1.024 0.04
04:21 1019 30.09 849 25.07 0.8 33.4 51 -8.2 17.2 1.126 0.044
04:22 1019 30.09 849 25.07 0.9 33.5 52 -8 17.6 1.217 0.048
04:23 1019 30.09 849 25.07 0.9 33.5 52 -8 17.6 1.217 0.048
04:24 1019 30.09 849 25.07 0.9 33.6 52 -7.9 17.8 1.245 0.049
04:25 1019 30.09 849 25.07 0.9 33.7 53 -7.6 18.3 1.285 0.051
04:26 1019 30.09 849 25.07 0.9 33.6 54 -7.5 18.6 1.296 0.051
04:27 1019 30.09 849 25.07 0.9 33.5 55 -7.1 19.2 1.239 0.049
04:28 1019 30.09 848 25.04 0.8 33.4 56 -6.9 19.5 1.183 0.047
04:29 1019 30.09 848 25.04 0.7 33.3 55 -7.3 18.9 1.126 0.044
04:30 1019 30.09 848 25.04 0.7 33.2 56 -7.2 19.1 1.137 0.045
04:31 1019 30.09 848 25.04 0.7 33.2 55 -7.3 18.8 1.143 0.045
04:32 1019 30.09 848 25.04 0.7 33.3 55 -7.3 18.8 1.109 0.044
04:33 1019 30.09 848 25.04 0.7 33.3 56 -7.1 19.2 1.166 0.046
04:34 1019 30.09 848 25.04 0.7 33.3 57 -6.8 19.7 1.16 0.046
04:35 1019 30.09 848 25.04 0.7 33.3 55 -7.4 18.7 1.126 0.044
04:36 1019 30.09 848 25.04 0.7 33.3 55 -7.2 19 1.143 0.045
04:37 1019 30.09 848 25.04 0.8 33.4 54 -7.5 18.5 1.166 0.046
04:38 1019 30.09 848 25.04 0.8 33.4 55 -7.3 18.8 1.216 0.048
04:39 1019 30.09 848 25.04 0.8 33.4 56 -7.1 19.3 1.239 0.049
04:40 1019 30.09 848 25.04 0.8 33.5 55 -7.3 18.9 1.228 0.048
04:41 1019 30.09 848 25.04 0.8 33.5 56 -7 19.3 1.239 0.049
04:42 1019 30.09 848 25.04 0.8 33.5 56 -7 19.5 1.256 0.049
04:43 1019 30.09 848 25.04 0.8 33.5 57 -6.8 19.7 1.228 0.048
04:44 1019 30.09 848 25.04 0.8 33.5 57 -6.8 19.8 1.216 0.048
04:45 1019 30.09 848 25.04 0.8 33.5 58 -6.6 20.1 1.205 0.047
04:46 1019 30.09 848 25.04 0.8 33.4 58 -6.5 20.3 1.171 0.046
04:47 1019 30.09 848 25.04 0.8 33.4 57 -6.7 19.9 1.171 0.046
04:48 1019 30.09 848 25.04 0.8 33.4 58 -6.7 20 1.165 0.046
04:49 1019 30.09 848 25.04 0.7 33.3 57 -6.8 19.8 1.137 0.045
04:50 1019 30.09 848 25.04 0.8 33.4 58 -6.6 20.1 1.165 0.046
04:51 1019 30.09 848 25.04 0.8 33.4 57 -6.9 19.7 1.165 0.046
04:52 1019 30.09 848 25.04 0.8 33.4 56 -7.1 19.3 1.194 0.047
04:53 1019 30.09 848 25.04 0.9 33.6 55 -7.2 19 1.256 0.049
04:54 1019 30.09 848 25.04 0.9 33.7 55 -7.1 19.2 1.279 0.05
04:55 1019 30.09 848 25.04 1 33.8 56 -6.9 19.7 1.347 0.053
04:56 1019 30.09 848 25.04 1 33.8 56 -6.9 19.6 1.341 0.053
04:57 1019 30.09 848 25.04 1.1 33.9 55 -7 19.5 1.369 0.054
04:58 1019 30.09 848 25.04 1 33.9 56 -6.8 19.8 1.398 0.055
04:59 1019 30.09 848 25.04 1.1 33.9 56 -6.7 20 1.432 0.056
05:00 1019 30.09 848 25.04 1.1 33.9 57 -6.6 20.2 1.466 0.058
05:01 1019 30.09 848 25.04 1.1 33.9 57 -6.5 20.3 1.443 0.057
05:02 1019 30.09 848 25.04 1 33.9 58 -6.3 20.6 1.426 0.056
05:03 1019 30.09 848 25.04 1.1 33.9 57 -6.5 20.4 1.454 0.057
05:04 1019 30.09 848 25.04 1 33.9 58 -6.2 20.8 1.442 0.057
05:05 1019 30.09 848 25.04 1.1 33.9 56 -6.7 19.9 1.453 0.057
05:06 1019 30.09 848 25.04 1.1 33.9 57 -6.5 20.3 1.47 0.058
05:07 1019 30.09 848 25.04 1.1 34 60 -5.8 21.5 1.504 0.059
05:08 1019 30.09 848 25.04 1 33.9 62 -5.4 22.3 1.459 0.057
05:09 1019 30.09 848 25.04 0.9 33.7 62 -5.5 22.1 1.397 0.055
05:10 1019 30.09 848 25.04 0.9 33.6 63 -5.4 22.2 1.333 0.052
05:11 1019 30.09 848 25.04 0.9 33.5 62 -5.7 21.7 1.31 0.052
05:12 1019 30.09 848 25.04 0.9 33.6 62 -5.7 21.8 1.271 0.05
05:13 1019 30.09 848 25.04 0.8 33.5 62 -5.6 21.9 1.253 0.049
05:14 1019 30.09 848 25.04 0.8 33.5 62 -5.5 22 1.27 0.05
05:15 1019 30.09 848 25.04 0.9 33.6 63 -5.4 22.2 1.264 0.05
05:16 1019 30.09 848 25.04 0.9 33.5 64 -5.3 22.5 1.269 0.05
05:17 1019 30.09 848 25.04 0.8 33.5 64 -5.2 22.6 1.252 0.049
05:18 1019 30.09 848 25.04 0.8 33.4 64 -5.2 22.6 1.241 0.049
05:19 1019 30.09 848 25.04 0.8 33.4 64 -5.3 22.5 1.229 0.048
05:20 1019 30.09 848 25.04 0.8 33.4 65 -5.1 22.8 1.251 0.049
05:21 1019 30.09 848 25.04 0.8 33.4 65 -5 22.9 1.217 0.048
05:22 1019 30.09 848 25.04 0.8 33.4 65 -5 23 1.223 0.048
05:23 1019 30.09 848 25.04 0.8 33.4 64 -5.3 22.5 1.189 0.047
05:24 1019 30.09 848 25.04 0.8 33.4 67 -4.6 23.7 1.228 0.048
05:25 1019 30.09 848 25.04 0.8 33.4 69 -4.3 24.2 1.251 0.049
05:26 1019 30.09 848 25.04 0.8 33.4 67 -4.7 23.6 1.2 0.047
05:27 1019 30.09 848 25.04 0.8 33.4 66 -4.9 23.2 1.183 0.047
05:28 1019 30.09 848 25.04 0.8 33.4 66 -4.9 23.2 1.194 0.047
05:29 1019 30.09 848 25.04 0.8 33.4 66 -4.9 23.2 1.199 0.047
05:30 1019 30.09 848 25.04 0.8 33.4 66 -4.9 23.2 1.216 0.048
05:31 1019 30.09 848 25.04 0.8 33.5 63 -5.5 22.1 1.227 0.048
05:32 1019 30.09 848 25.04 0.9 33.6 64 -5.2 22.7 1.239 0.049
05:33 1019 30.09 848 25.04 0.9 33.7 63 -5.3 22.4 1.295 0.051
05:34 1019 30.09 848 25.04 0.9 33.7 64 -5.2 22.7 1.357 0.053
05:35 1019 30.09 848 25.04 1 33.8 63 -5.2 22.7 1.369 0.054
05:36 1019 30.09 848 25.04 1 33.8 65 -4.9 23.2 1.403 0.055
05:37 1019 30.09 848 25.04 1 33.7 66 -4.6 23.6 1.403 0.055
05:38 1019 30.09 848 25.04 1 33.8 67 -4.5 23.8 1.403 0.055
05:39 1019 30.09 848 25.04 0.9 33.7 67 -4.5 24 1.352 0.053
05:40 1019 30.09 848 25.04 0.9 33.6 68 -4.3 24.3 1.318 0.052
05:41 1019 30.09 848 25.04 0.9 33.6 69 -4.2 24.5 1.312 0.052
05:42 1019 30.09 848 25.04 0.8 33.5 70 -4.1 24.7 1.249 0.049
05:43 1019 30.09 848 25.04 0.8 33.4 69 -4.2 24.4 1.238 0.049
05:44 1019 30.09 848 25.04 0.8 33.4 70 -4 24.8 1.215 0.048
05:45 1019 30.09 848 25.04 0.8 33.4 69 -4.2 24.4 1.244 0.049
05:46 1019 30.09 848 25.04 0.8 33.5 69 -4.2 24.4 1.227 0.048
05:47 1019 30.09 848 25.04 0.8 33.5 68 -4.4 24.2 1.249 0.049
05:48 1019 30.09 848 25.04 0.9 33.6 68 -4.4 24 1.282 0.05
05:49 1019 30.09 848 25.04 0.9 33.7 68 -4.3 24.2 1.305 0.051
05:50 1019 30.09 848 25.04 1 33.8 67 -4.4 24.1 1.344 0.053
05:51 1019 30.09 848 25.04 1 33.8 68 -4.2 24.4 1.384 0.054
05:52 1019 30.09 848 25.04 1 33.8 69 -4 24.7 1.378 0.054
05:53 1019 30.09 848 25.04 1 33.8 69 -4.1 24.7 1.418 0.056
05:54 1019 30.09 848 25.04 1 33.8 69 -4 24.8 1.371 0.054
05:55 1019 30.09 848 25.04 1 33.8 68 -4.2 24.4 1.405 0.055
05:56 1019 30.09 848 25.04 1 33.8 68 -4.3 24.2 1.394 0.055
05:57 1019 30.09 848 25.04 1 33.9 68 -4.2 24.4 1.41 0.056
05:58 1019 30.09 848 25.04 1 33.9 69 -4.1 24.7 1.444 0.057
05:59 1019 30.09 848 25.04 1 33.9 70 -3.9 24.9 1.438 0.057
06:00 1019 30.09 848 25.04 1 33.8 70 -3.8 25.1 1.449 0.057
06:01 1019 30.09 848 25.04 1 33.8 71 -3.7 25.3 1.455 0.057
06:02 1019 30.09 848 25.04 1 33.8 71 -3.7 25.3 1.46 0.057
06:03 1019 30.09 848 25.04 1 33.8 71 -3.7 25.3 1.443 0.057
06:04 1019 30.09 848 25.04 1 33.8 71 -3.6 25.5 1.431 0.056
06:05 1019 30.09 848 25.04 1 33.8 71 -3.6 25.5 1.443 0.057
06:06 1019 30.09 848 25.04 1 33.8 71 -3.7 25.4 1.425 0.056
06:07 1019 30.09 848 25.04 1 33.8 71 -3.7 25.4 1.437 0.057
06:08 1019 30.09 848 25.04 1 33.9 70 -3.9 25 1.391 0.055
06:09 1019 30.09 848 25.04 1 33.9 70 -3.8 25.1 1.425 0.056
06:10 1019 30.09 848 25.04 1.1 33.9 69 -4 24.8 1.464 0.058
06:11 1019 30.09 848 25.04 1.1 34 66 -4.6 23.7 1.442 0.057
06:12 1019 30.09 848 25.04 1.2 34.1 64 -4.8 23.3 1.464 0.058
06:13 1019 30.09 848 25.04 1.2 34.2 64 -4.8 23.3 1.487 0.059
06:14 1019 30.09 848 25.04 1.3 34.3 64 -4.7 23.5 1.526 0.06
06:15 1019 30.09 848 25.04 1.3 34.3 65 -4.6 23.7 1.549 0.061
06:16 1019 30.09 848 25.04 1.3 34.4 67 -4.2 24.5 1.6 0.063
06:17 1019 30.09 848 25.04 1.3 34.3 68 -4 24.8 1.662 0.065
06:18 1019 30.09 848 25.04 1.3 34.3 68 -3.9 24.9 1.617 0.064
06:19 1019 30.09 848 25.04 1.2 34.2 68 -3.9 24.9 1.617 0.064
06:20 1019 30.09 848 25.04 1.2 34.2 69 -3.8 25.1 1.611 0.063
06:21 1019 30.09 848 25.04 1.2 34.2 69 -3.8 25.1 1.645 0.065
06:22 1019 30.09 848 25.04 1.3 34.3 67 -4.2 24.5 1.605 0.063
06:23 1019 30.09 848 25.04 1.3 34.3 67 -4.2 24.4 1.639 0.065
06:24 1019 30.09 848 25.04 1.3 34.3 67 -4.3 24.3 1.645 0.065
06:25 1019 30.09 848 25.04 1.3 34.4 67 -4.2 24.5 1.695 0.067
06:26 1019 30.09 848 25.04 1.4 34.5 66 -4.2 24.4 1.735 0.068
06:27 1019 30.09 848 25.04 1.4 34.5 66 -4.3 24.2 1.78 0.07
06:28 1019 30.09 848 25.04 1.4 34.5 66 -4.2 24.4 1.814 0.071
06:29 1019 30.09 848 25.04 1.5 34.6 66 -4.3 24.3 1.831 0.072
06:30 1019 30.09 848 25.04 1.5 34.7 63 -4.7 23.5 1.831 0.072
06:31 1019 30.09 848 25.04 1.5 34.8 63 -4.9 23.3 1.871 0.074
06:32 1019 30.09 848 25.04 1.6 34.9 62 -4.9 23.2 1.933 0.076
06:33 1019 30.09 848 25.04 1.7 35 63 -4.7 23.5 1.973 0.078
06:34 1019 30.09 848 25.04 1.7 35 64 -4.4 24 2.029 0.08
06:35 1019 30.09 848 25.04 1.7 35 63 -4.6 23.8 2.052 0.081
06:36 1019 30.09 848 25.04 1.7 35.1 64 -4.4 24.1 2.086 0.082
06:37 1019 30.09 848 25.04 1.8 35.2 62 -4.7 23.5 2.108 0.083
06:38 1019 30.09 848 25.04 1.8 35.2 64 -4.4 24.1 2.171 0.085
06:39 1019 30.09 848 25.04 1.8 35.2 65 -4.2 24.5 2.154 0.085
06:40 1019 30.09 848 25.04 1.7 35.1 65 -4.1 24.6 2.142 0.084
06:41 1019 30.09 848 25.04 1.7 35.1 64 -4.5 23.9 2.12 0.083
06:42 1019 30.09 848 25.04 1.7 35.1 64 -4.3 24.2 2.12 0.083
06:43 1019 30.09 848 25.04 1.8 35.2 63 -4.5 24 2.125 0.084
06:44 1019 30.09 848 25.04 1.8 35.2 64 -4.2 24.4 2.142 0.084
06:45 1019 30.09 848 25.04 1.8 35.2 65 -4.2 24.4 2.165 0.085
06:46 1019 30.09 848 25.04 1.8 35.2 64 -4.3 24.2 2.165 0.085
06:47 1019 30.09 848 25.04 1.8 35.2 63 -4.5 24 2.199 0.087
06:48 1019 30.09 848 25.04 1.8 35.3 63 -4.5 23.9 2.188 0.086
06:49 1019 30.09 848 25.04 1.8 35.3 63 -4.4 24 2.227 0.088
06:50 1019 30.09 848 25.04 1.9 35.4 66 -3.9 25 2.261 0.089
06:51 1019 30.09 848 25.04 1.8 35.3 66 -3.8 25.1 2.239 0.088
06:52 1018 30.06 848 25.04 1.8 35.2 64 -4.4 24.1 2.171 0.085
06:53 1018 30.06 848 25.04 1.8 35.2 63 -4.6 23.7 2.148 0.085
06:54 1019 30.09 848 25.04 1.8 35.2 63 -4.5 23.9 2.188 0.086
06:55 1018 30.06 848 25.04 1.8 35.2 62 -4.6 23.6 2.171 0.085
06:56 1018 30.06 848 25.04 1.8 35.2 61 -5.1 22.9 2.171 0.085
06:57 1018 30.06 848 25.04 1.8 35.3 61 -4.9 23.1 2.188 0.086
06:58 1018 30.06 848 25.04 1.9 35.4 61 -4.8 23.4 2.267 0.089
06:59 1018 30.06 848 25.04 1.9 35.3 61 -4.8 23.3 2.255 0.089
07:00 1018 30.06 848 25.04 1.9 35.4 60 -5.1 22.8 2.278 0.09
07:01 1018 30.06 848 25.04 1.9 35.4 58 -5.5 22.1 2.295 0.09
07:02 1019 30.09 848 25.04 2 35.5 58 -5.4 22.4 2.374 0.093
07:03 1019 30.09 848 25.04 2 35.5 58 -5.6 22 2.374 0.093
07:04 1019 30.09 848 25.04 2 35.6 57 -5.7 21.7 2.408 0.095
07:05 1019 30.09 848 25.04 2.1 35.7 56 -5.7 21.7 2.465 0.097
07:06 1019 30.09 848 25.04 2.1 35.8 56 -5.7 21.7 2.516 0.099
07:07 1019 30.09 848 25.04 2.1 35.7 56 -5.9 21.4 2.493 0.098
07:08 1019 30.09 848 25.04 2.1 35.9 56 -5.8 21.5 2.505 0.099
07:09 1019 30.09 848 25.04 2.1 35.8 56 -5.8 21.6 2.522 0.099
07:10 1019 30.09 848 25.04 2.2 35.9 58 -5.3 22.5 2.522 0.099
07:11 1019 30.09 848 25.04 2.1 35.8 57 -5.6 22 2.488 0.098
07:12 1019 30.09 848 25.04 2.1 35.8 55 -5.9 21.4 2.499 0.098
07:13 1019 30.09 848 25.04 2.1 35.8 55 -6.1 21.1 2.516 0.099
07:14 1019 30.09 848 25.04 2.1 35.9 56 -5.8 21.5 2.544 0.1
07:15 1019 30.09 848 25.04 2.2 35.9 56 -5.8 21.6 2.572 0.101
07:16 1019 30.09 848 25.04 2.2 35.9 57 -5.5 22.1 2.601 0.102
07:17 1019 30.09 848 25.04 2.2 36 57 -5.4 22.2 2.567 0.101
07:18 1019 30.09 848 25.04 2.2 35.9 58 -5.3 22.5 2.55 0.1
07:19 1019 30.09 848 25.04 2.1 35.8 58 -5.3 22.4 2.527 0.099
07:20 1019 30.09 848 25.04 2.1 35.8 57 -5.5 22.2 2.522 0.099
07:21 1019 30.09 848 25.04 2.1 35.8 54 -6.1 20.9 2.522 0.099
07:22 1019 30.09 848 25.04 2.1 35.9 53 -6.4 20.4 2.578 0.101
07:23 1019 30.09 848 25.04 2.2 36 50 -7.3 18.9 2.646 0.104
07:24 1019 30.09 848 25.04 2.3 36.1 53 -6.3 20.7 2.742 0.108
07:25 1019 30.09 848 25.04 2.4 36.3 52 -6.6 20.2 2.788 0.11
07:26 1019 30.09 848 25.04 2.4 36.4 53 -6.2 20.9 2.816 0.111
07:27 1019 30.09 848 25.04 2.4 36.3 57 -5.2 22.6 2.805 0.11
07:28 1019 30.09 848 25.04 2.4 36.3 54 -6.1 21 2.793 0.11
07:29 1019 30.09 848 25.04 2.4 36.3 53 -6.3 20.6 2.737 0.108
07:30 1019 30.09 848 25.04 2.3 36.2 52 -6.5 20.3 2.748 0.108
07:31 1019 30.09 848 25.04 2.4 36.2 54 -5.9 21.3 2.737 0.108
07:32 1019 30.09 848 25.04 2.4 36.3 58 -5.1 22.8 2.776 0.109
07:33 1019 30.09 848 25.04 2.3 36.1 54 -6 21.2 2.754 0.108
07:34 1019 30.09 848 25.04 2.3 36.1 52 -6.6 20.2 2.657 0.105
07:35 1019 30.09 848 25.04 2.2 36 53 -6.3 20.7 2.623 0.103
07:36 1019 30.09 848 25.04 2.3 36.1 56 -5.7 21.8 2.652 0.104
07:37 1019 30.09 848 25.04 2.2 36 53 -6.3 20.7 2.652 0.104
07:38 1019 30.09 848 25.04 2.2 36 51 -7 19.5 2.657 0.105
07:39 1019 30.09 848 25.04 2.3 36.1 55 -5.8 21.5 2.663 0.105
07:40 1019 30.09 848 25.04 2.3 36.1 59 -4.9 23.1 2.731 0.108
07:41 1019 30.09 848 25.04 2.2 35.9 58 -5.3 22.5 2.646 0.104
07:42 1019 30.09 848 25.04 2.3 36.1 45 -8.4 17 2.629 0.104
07:43 1018 30.06 848 25.04 2.5 36.4 45 -8.4 16.8 2.748 0.108
07:44 1018 30.06 848 25.04 2.7 36.8 56 -5.2 22.7 2.935 0.116
07:45 1018 30.06 848 25.04 2.8 37 54 -5.5 22.1 3.082 0.121
07:46 1019 30.09 848 25.04 2.8 37.1 57 -4.9 23.2 3.19 0.126
07:47 1018 30.06 848 25.04 2.9 37.2 58 -4.6 23.7 3.24 0.128
07:48 1018 30.06 848 25.04 2.9 37.2 60 -4 24.7 3.291 0.13
07:49 1018 30.06 848 25.04 3 37.4 62 -3.6 25.5 3.348 0.132
07:50 1018 30.06 848 25.04 3.1 37.5 64 -3.2 26.3 3.461 0.136
07:51 1018 30.06 848 25.04 3.1 37.6 59 -4 24.7 3.535 0.139
07:52 1018 30.06 848 25.04 3.2 37.8 61 -3.5 25.7 3.625 0.143
07:53 1018 30.06 848 25.04 3.2 37.8 61 -3.5 25.6 3.637 0.143
07:54 1018 30.06 848 25.04 3.2 37.8 62 -3.3 26 3.631 0.143
07:55 1018 30.06 848 25.04 3.2 37.8 63 -3.3 26.1 3.654 0.144
07:56 1018 30.06 848 25.04 3.3 38 65 -2.7 27.1 3.716 0.146
07:57 1018 30.06 848 25.04 3.4 38.2 65 -2.6 27.4 3.835 0.151
07:58 1018 30.06 848 25.04 3.5 38.3 65 -2.4 27.7 3.88 0.153
07:59 1018 30.06 848 25.04 3.5 38.4 65 -2.4 27.7 3.92 0.154
08:00 1018 30.06 848 25.04 3.6 38.4 66 -2.2 28 4.005 0.158
08:01 1018 30.06 848 25.04 3.5 38.4 66 -2.2 28 3.965 0.156
08:02 1018 30.06 848 25.04 3.5 38.3 66 -2.2 28.1 3.971 0.156
08:03 1018 30.06 848 25.04 3.5 38.3 67 -2.1 28.3 3.965 0.156
08:04 1018 30.06 848 25.04 3.5 38.3 68 -1.9 28.7 3.993 0.157
08:05 1018 30.06 848 25.04 3.5 38.4 68 -1.8 28.8 3.982 0.157
08:06 1018 30.06 848 25.04 3.5 38.4 69 -1.6 29.1 3.976 0.157
08:07 1018 30.06 848 25.04 3.5 38.3 70 -1.5 29.3 3.971 0.156
08:08 1018 30.06 848 25.04 3.6 38.4 70 -1.4 29.4 3.988 0.157
08:09 1018 30.06 848 25.04 3.6 38.5 71 -1.2 29.8 4.05 0.159
08:10 1018 30.06 848 25.04 3.6 38.5 70 -1.3 29.7 4.022 0.158
08:11 1018 30.06 848 25.04 3.6 38.5 69 -1.4 29.4 4.027 0.159
08:12 1018 30.06 848 25.04 3.7 38.7 69 -1.4 29.4 4.101 0.161
08:13 1018 30.06 848 25.04 3.8 38.9 69 -1.4 29.5 4.203 0.165
08:14 1018 30.06 848 25.04 3.9 38.9 69 -1.3 29.6 4.243 0.167
08:15 1018 30.06 848 25.04 3.9 39 68 -1.5 29.3 4.31 0.17
08:16 1018 30.06 848 25.04 3.9 39 69 -1.3 29.6 4.299 0.169
08:17 1018 30.06 848 25.04 3.9 39 66 -1.8 28.7 4.282 0.169
08:18 1019 30.09 848 25.04 3.7 38.7 66 -2 28.5 4.128 0.163
08:19 1019 30.09 848 25.04 3.6 38.5 66 -2.1 28.2 4.032 0.159
08:20 1019 30.09 848 25.04 3.6 38.4 66 -2.1 28.3 3.935 0.155
08:21 1019 30.09 848 25.04 3.5 38.3 67 -2.1 28.3 3.856 0.152
08:22 1019 30.09 848 25.04 3.4 38.1 66 -2.3 27.8 3.771 0.148
08:23 1018 30.06 848 25.04 3.4 38.1 67 -2.1 28.2 3.726 0.147
08:24 1018 30.06 848 25.04 3.3 38 67 -2.2 28 3.765 0.148
08:25 1018 30.06 848 25.04 3.3 38 68 -2 28.5 3.753 0.148
08:26 1018 30.06 848 25.04 3.4 38 67 -2.1 28.2 3.764 0.148
08:27 1018 30.06 848 25.04 3.4 38.2 66 -2.3 27.9 3.826 0.151
08:28 1018 30.06 848 25.04 3.4 38.2 66 -2.4 27.7 3.809 0.15
08:29 1018 30.06 848 25.04 3.4 38.1 65 -2.5 27.5 3.781 0.149
08:30 1018 30.06 848 25.04 3.4 38.1 66 -2.4 27.7 3.764 0.148
08:31 1018 30.06 848 25.04 3.4 38.1 67 -2.1 28.2 3.776 0.149
08:32 1018 30.06 848 25.04 3.3 37.9 67 -2.2 28.1 3.735 0.147
08:33 1018 30.06 848 25.04 3.3 37.9 67 -2.3 27.9 3.678 0.145
08:34 1018 30.06 848 25.04 3.2 37.7 65 -2.7 27.1 3.61 0.142
08:35 1018 30.06 848 25.04 3.2 37.7 64 -3 26.5 3.549 0.14
08:36 1018 30.06 848 25.04 3.2 37.8 66 -2.5 27.4 3.577 0.141
08:37 1018 30.06 848 25.04 3.1 37.6 65 -2.9 26.9 3.521 0.139
08:38 1018 30.06 848 25.04 3.2 37.7 64 -3.1 26.4 3.526 0.139
08:39 1018 30.06 848 25.04 3.2 37.8 68 -2.2 28.1 3.639 0.143
08:40 1018 30.06 848 25.04 3.2 37.8 68 -2.2 28 3.622 0.143
08:41 1018 30.06 847 25.01 3.1 37.6 66 -2.6 27.4 3.547 0.14
08:42 1018 30.06 847 25.01 3.1 37.5 69 -2.1 28.2 3.519 0.139
08:43 1018 30.06 847 25.01 3.1 37.5 71 -1.6 29 3.468 0.137
08:44 1018 30.06 847 25.01 3 37.4 73 -1.4 29.4 3.405 0.134
08:45 1018 30.06 847 25.01 2.9 37.1 74 -1.2 29.8 3.326 0.131
08:46 1018 30.06 847 25.01 2.8 37 75 -1.2 29.9 3.264 0.129
08:47 1018 30.06 847 25.01 2.7 36.9 74 -1.4 29.6 3.263 0.128
08:48 1018 30.06 847 25.01 2.8 37 74 -1.3 29.6 3.229 0.127
08:49 1018 30.06 847 25.01 2.8 37 74 -1.4 29.5 3.218 0.127
08:50 1018 30.06 847 25.01 2.8 37 72 -1.7 28.9 3.218 0.127
08:51 1018 30.06 847 25.01 2.9 37.2 73 -1.6 29.2 3.252 0.128
08:52 1018 30.06 847 25.01 2.9 37.2 72 -1.6 29.1 3.297 0.13
08:53 1018 30.06 847 25.01 2.9 37.2 75 -1.2 29.8 3.297 0.13
08:54 1018 30.06 847 25.01 2.7 36.9 73 -1.6 29.2 3.189 0.126
08:55 1018 30.06 847 25.01 2.6 36.7 73 -1.7 29 3.03 0.119
08:56 1018 30.06 847 25.01 2.5 36.5 73 -1.8 28.7 2.928 0.115
08:57 1018 30.06 847 25.01 2.5 36.4 74 -1.7 28.9 2.894 0.114
08:58 1018 30.06 847 25.01 2.4 36.4 74 -1.7 28.9 2.855 0.112
08:59 1018 30.06 847 25.01 2.5 36.4 75 -1.6 29.2 2.86 0.113
09:00 1018 30.06 847 25.01 2.5 36.5 75 -1.5 29.3 2.94 0.116
09:01 1018 30.06 847 25.01 2.5 36.6 71 -2.2 28.1 2.945 0.116
09:02 1018 30.06 847 25.01 2.6 36.7 70 -2.3 27.8 2.962 0.117
09:03 1018 30.06 847 25.01 2.7 36.8 70 -2.3 27.9 3.03 0.119
09:04 1018 30.06 847 25.01 2.7 36.9 68 -2.6 27.3 3.12 0.123
09:05 1018 30.06 847 25.01 2.8 37 65 -3.2 26.3 3.126 0.123
09:06 1018 30.06 847 25.01 2.9 37.2 66 -2.9 26.9 3.251 0.128
09:07 1018 30.06 847 25.01 3 37.3 66 -2.8 26.9 3.324 0.131
09:08 1018 30.06 847 25.01 3 37.4 64 -3.3 26.1 3.369 0.133
09:09 1018 30.06 847 25.01 3 37.5 67 -2.4 27.7 3.409 0.134
09:10 1018 30.06 847 25.01 3.1 37.5 69 -2.1 28.1 3.466 0.136
09:11 1018 30.06 847 25.01 3.1 37.6 69 -2.1 28.2 3.533 0.139
09:12 1018 30.06 847 25.01 3.1 37.6 68 -2.2 28 3.522 0.139
09:13 1018 30.06 847 25.01 3.1 37.7 67 -2.3 27.8 3.596 0.142
09:14 1018 30.06 847 25.01 3.2 37.7 68 -2.1 28.2 3.607 0.142
09:15 1018 30.06 847 25.01 3.2 37.8 67 -2.2 28 3.641 0.143
09:16 1018 30.06 847 25.01 3.3 37.9 64 -2.9 26.7 3.675 0.145
09:17 1018 30.06 847 25.01 3.3 38 63 -3 26.7 3.726 0.147
09:18 1018 30.06 847 25.01 3.4 38.1 63 -2.9 26.8 3.794 0.149
09:19 1018 30.06 847 25.01 3.5 38.3 62 -3 26.6 3.879 0.153
09:20 1018 30.06 847 25.01 3.6 38.4 62 -3.1 26.4 3.992 0.157
09:21 1018 30.06 847 25.01 3.7 38.6 61 -3.2 26.2 4.014 0.158
09:22 1018 30.06 847 25.01 3.7 38.6 62 -2.9 26.8 4.043 0.159
09:23 1018 30.06 847 25.01 3.7 38.7 64 -2.5 27.5 4.094 0.161
09:24 1018 30.06 847 25.01 3.8 38.8 64 -2.5 27.6 4.15 0.163
09:25 1018 30.06 847 25.01 3.8 38.8 64 -2.3 27.8 4.212 0.166
09:26 1018 30.06 847 25.01 3.8 38.9 62 -2.7 27.1 4.241 0.167
09:27 1018 30.06 847 25.01 3.9 39 65 -2.1 28.2 4.32 0.17
09:28 1018 30.06 847 25.01 4 39.1 62 -2.7 27.2 4.365 0.172
09:29 1018 30.06 847 25.01 4 39.2 62 -2.6 27.2 4.416 0.174
09:30 1018 30.06 847 25.01 4.1 39.4 63 -2.2 28 4.507 0.177
09:31 1018 30.06 847 25.01 4.2 39.5 64 -2 28.3 4.58 0.18
09:32 1018 30.06 847 25.01 4.3 39.7 63 -2.2 28 4.694 0.185
09:33 1018 30.06 847 25.01 4.3 39.8 65 -1.7 29 4.767 0.188
09:34 1017 30.03 847 25.01 4.5 40 61 -2.3 27.8 4.869 0.192
09:35 1017 30.03 847 25.01 4.6 40.3 62 -2 28.3 4.977 0.196
09:36 1017 30.03 847 25.01 4.7 40.5 61 -2.3 27.9 5.067 0.199
09:37 1017 30.03 847 25.01 4.8 40.6 62 -1.9 28.6 5.135 0.202
09:38 1017 30.03 847 25.01 4.8 40.7 60 -2.3 27.9 5.203 0.205
09:39 1017 30.03 847 25.01 4.9 40.9 58 -2.6 27.2 5.271 0.208
09:40 1017 30.03 847 25.01 4.9 40.9 57 -2.9 26.7 5.333 0.21
09:41 1017 30.03 847 25.01 5 41.1 59 -2.3 27.8 5.39 0.212
09:42 1017 30.03 847 25.01 5.2 41.3 58 -2.5 27.6 5.543 0.218
09:43 1017 30.03 847 25.01 5.3 41.6 56 -2.7 27.2 5.616 0.221
09:44 1017 30.03 846 24.98 5.5 41.8 55 -2.8 27 5.701 0.224
09:45 1017 30.03 846 24.98 5.5 41.9 56 -2.5 27.4 5.758 0.227
09:46 1017 30.03 846 24.98 5.7 42.2 58 -1.9 28.6 5.91 0.233
09:47 1017 30.03 846 24.98 5.9 42.6 57 -2 28.4 6.058 0.239
09:48 1017 30.03 846 24.98 6 42.8 55 -2.3 27.9 6.205 0.244
09:49 1017 30.03 846 24.98 6.2 43.2 54 -2.4 27.6 6.392 0.252
09:50 1017 30.03 846 24.98 6.4 43.6 55 -1.9 28.6 6.522 0.257
09:51 1017 30.03 847 25.01 6.7 44 52 -2.5 27.6 6.691 0.263
09:52 1017 30.03 847 25.01 6.8 44.2 52 -2.4 27.7 6.809 0.268
09:53 1017 30.03 846 24.98 6.9 44.5 53 -2.1 28.3 6.865 0.27
09:54 1017 30.03 846 24.98 7.1 44.7 54 -1.7 28.9 6.893 0.271
09:55 1017 30.03 847 25.01 7.2 45 50 -2.4 27.6 7.05 0.278
09:56 1017 30.03 847 25.01 7.3 45.1 50 -2.5 27.5 7.01 0.276
09:57 1017 30.03 847 25.01 7.1 44.9 52 -2 28.3 6.943 0.273
09:58 1017 30.03 847 25.01 7 44.6 54 -1.7 29 6.846 0.27
09:59 1017 30.03 847 25.01 6.8 44.2 52 -2.3 27.9 6.744 0.266
10:00 1017 30.03 847 25.01 6.7 44 54 -1.8 28.7 6.681 0.263
10:01 1017 30.03 847 25.01 6.6 43.8 53 -2.3 27.9 6.579 0.259
10:02 1017 30.03 847 25.01 6.4 43.5 55 -2.1 28.3 6.528 0.257
10:03 1017 30.03 847 25.01 6.4 43.4 53 -2.5 27.6 6.511 0.256
10:04 1017 30.03 847 25.01 6.3 43.4 53 -2.4 27.6 6.488 0.255
10:05 1017 30.03 847 25.01 6.4 43.4 53 -2.6 27.4 6.533 0.257
10:06 1017 30.03 847 25.01 6.3 43.3 54 -2.4 27.7 6.516 0.257
10:07 1017 30.03 847 25.01 6.3 43.3 55 -2 28.4 6.556 0.258
10:08 1017 30.03 847 25.01 6.4 43.4 54 -2.4 27.7 6.544 0.258
10:09 1017 30.03 847 25.01 6.4 43.5 54 -2.2 28 6.538 0.257
10:10 1017 30.03 847 25.01 6.3 43.4 56 -1.7 29 6.499 0.256
10:11 1017 30.03 846 24.98 6.4 43.6 58 -1.3 29.7 6.617 0.261
10:12 1017 30.03 846 24.98 6.6 43.9 54 -2.1 28.2 6.759 0.266
10:13 1017 30.03 846 24.98 6.7 44.1 53 -2.2 28 6.855 0.27
10:14 1017 30.03 846 24.98 6.8 44.2 54 -1.8 28.8 6.974 0.275
10:15 1017 30.03 846 24.98 6.9 44.4 50 -2.7 27.1 7.11 0.28
10:16 1017 30.03 846 24.98 7.1 44.7 54 -1.7 29 7.23 0.285
10:17 1017 30.03 846 24.98 7.2 44.9 52 -2.1 28.2 7.38 0.291
10:18 1017 30.03 846 24.98 7.3 45.1 51 -2.2 28 7.48 0.294
10:19 1017 30.03 846 24.98 7.4 45.4 51 -1.9 28.5 7.63 0.3
10:20 1017 30.03 846 24.98 7.7 45.8 52 -1.5 29.3 7.87 0.31
10:21 1017 30.03 846 24.98 7.9 46.1 50 -1.8 28.7 8.07 0.318
10:22 1017 30.03 846 24.98 7.9 46.2 48 -2.3 27.9 8.14 0.32
10:23 1017 30.03 846 24.98 7.8 46 50 -2 28.3 8.1 0.319
10:24 1017 30.03 846 24.98 8 46.3 53 -1 30.2 8.21 0.323
10:25 1017 30.03 846 24.98 8.1 46.6 51 -1.5 29.3 8.41 0.331
10:26 1017 30.03 846 24.98 8.1 46.6 50 -1.6 29.2 8.41 0.331
10:27 1017 30.03 846 24.98 8 46.4 53 -1 30.1 8.34 0.328
10:28 1017 30.03 846 24.98 7.9 46.2 54 -0.9 30.4 8.28 0.326
10:29 1017 30.03 846 24.98 7.8 46.1 52 -1.3 29.6 8.27 0.326
10:30 1017 30.03 846 24.98 7.8 46 53 -1.1 30.1 8.18 0.322
10:31 1017 30.03 846 24.98 7.7 45.9 53 -1.2 29.8 8.16 0.321
10:32 1017 30.03 846 24.98 7.7 45.9 54 -0.9 30.3 8.11 0.319
10:33 1017 30.03 846 24.98 7.7 45.9 56 -0.5 31.1 8.13 0.32
10:34 1017 30.03 846 24.98 7.7 45.9 54 -1 30.2 8.15 0.321
10:35 1017 30.03 846 24.98 7.8 46 54 -1 30.2 8.18 0.322
10:36 1017 30.03 846 24.98 7.8 46 55 -0.7 30.8 8.18 0.322
10:37 1017 30.03 846 24.98 7.8 46.1 55 -0.7 30.8 8.27 0.326
10:38 1017 30.03 846 24.98 7.9 46.1 54 -0.8 30.6 8.27 0.326
10:39 1017 30.03 846 24.98 7.9 46.3 55 -0.6 31 8.35 0.329
10:40 1017 30.03 846 24.98 7.9 46.3 53 -1.1 30 8.35 0.329
10:41 1017 30.03 846 24.98 7.9 46.2 52 -1.5 29.4 8.27 0.326
10:42 1017 30.03 846 24.98 7.8 46.1 52 -1.4 29.5 8.24 0.324
10:43 1017 30.03 846 24.98 7.8 46 52 -1.4 29.5 8.23 0.324
10:44 1017 30.03 846 24.98 7.8 46 53 -1 30.1 8.18 0.322
10:45 1017 30.03 846 24.98 7.7 45.9 52 -1.4 29.4 8.16 0.321
10:46 1017 30.03 846 24.98 7.8 46 54 -0.9 30.4 8.15 0.321
10:47 1017 30.03 846 24.98 7.8 46 53 -1.2 29.9 8.21 0.323
10:48 1017 30.03 846 24.98 7.8 46.1 54 -1 30.3 8.27 0.326
10:49 1017 30.03 846 24.98 7.9 46.2 54 -0.9 30.4 8.3 0.327
10:50 1017 30.03 846 24.98 7.9 46.3 55 -0.4 31.2 8.34 0.328
10:51 1017 30.03 846 24.98 8 46.5 53 -0.8 30.5 8.44 0.332
10:52 1017 30.03 846 24.98 8.1 46.6 50 -1.6 29.2 8.53 0.336
10:53 1017 30.03 846 24.98 8.2 46.7 52 -1.1 29.9 8.54 0.336
10:54 1017 30.03 846 24.98 8.2 46.7 53 -0.9 30.3 8.6 0.339
10:55 1017 30.03 846 24.98 8.3 46.9 51 -1.1 30 8.69 0.342
10:56 1017 30.03 846 24.98 8.3 47 53 -0.8 30.6 8.78 0.346
10:57 1017 30.03 846 24.98 8.6 47.5 51 -0.8 30.5 8.96 0.353
10:58 1016 30 846 24.98 8.9 48.1 51 -0.8 30.6 9.22 0.363
10:59 1016 30 846 24.98 9.2 48.5 50 -0.7 30.8 9.42 0.371
11:00 1016 30 846 24.98 9.5 49.1 48 -0.8 30.5 9.66 0.38
11:01 1016 30 846 24.98 9.7 49.4 47 -1.2 29.9 9.8 0.386
11:02 1016 30 846 24.98 9.7 49.4 48 -0.6 30.9 9.77 0.385
11:03 1016 30 846 24.98 9.7 49.4 49 -0.5 31.1 9.74 0.383
11:04 1016 30 845 24.95 9.7 49.5 45 -1.5 29.3 9.67 0.381
11:05 1016 30 845 24.95 9.6 49.2 48 -0.8 30.6 9.5 0.374
11:06 1016 30 845 24.95 9.4 48.9 48 -1 30.2 9.47 0.373
11:07 1016 30 845 24.95 9.3 48.7 46 -1.9 28.6 9.33 0.367
11:08 1016 30 845 24.95 9.1 48.4 47 -1.7 29 9.16 0.361
11:09 1016 30 845 24.95 9 48.3 48 -1.4 29.5 9.1 0.358
11:10 1016 30 845 24.95 9 48.2 48 -1.5 29.3 9.13 0.359
11:11 1016 30 845 24.95 9.1 48.3 48 -1.4 29.4 9.2 0.362
11:12 1016 30 845 24.95 9.2 48.5 47 -1.5 29.2 9.32 0.367
11:13 1016 30 845 24.95 9.2 48.5 49 -1 30.3 9.45 0.372
11:14 1016 30 845 24.95 9.2 48.6 47 -1.5 29.3 9.55 0.376
11:15 1016 30 845 24.95 9.3 48.8 48 -1.2 29.9 9.66 0.38
11:16 1016 30 845 24.95 9.5 49.2 48 -0.9 30.4 9.84 0.387
11:17 1016 30 845 24.95 9.8 49.6 48 -0.8 30.5 10.13 0.399
11:18 1016 30 845 24.95 10 49.9 47 -0.9 30.4 10.34 0.407
11:19 1016 30 845 24.95 10.1 50.1 46 -1 30.2 10.37 0.408
11:20 1016 30 845 24.95 10 50.1 47 -0.7 30.8 10.42 0.41
11:21 1016 30 845 24.95 10.1 50.2 46 -1 30.2 10.54 0.415
11:22 1016 30 845 24.95 10.2 50.4 45 -1.1 30.1 10.6 0.417
11:23 1016 30 845 24.95 10.2 50.4 46 -0.9 30.5 10.65 0.419
11:24 1016 30 845 24.95 10.2 50.3 45 -1.1 30 10.6 0.417
11:25 1016 30 845 24.95 10.1 50.2 45 -1.2 29.8 10.59 0.417
11:26 1016 30 845 24.95 10.2 50.4 47 -0.7 30.8 10.64 0.419
11:27 1016 30 845 24.95 10.3 50.6 45 -1 30.2 10.68 0.42
11:28 1016 30 845 24.95 10.4 50.6 47 -0.3 31.4 10.74 0.423
11:29 1016 30 845 24.95 10.4 50.8 46 -0.5 31.1 10.81 0.426
11:30 1016 30 845 24.95 10.5 50.9 44 -1.1 30.1 10.95 0.431
11:31 1016 30 845 24.95 10.6 51.1 42 -1.6 29.2 11.06 0.435
11:32 1016 30 845 24.95 10.6 51.1 46 -0.5 31 11.11 0.437
11:33 1016 30 845 24.95 10.6 51.1 44 -1 30.1 11.08 0.436
11:34 1016 30 845 24.95 10.6 51.1 45 -0.8 30.5 11.1 0.437
11:35 1016 30 845 24.95 10.6 51.1 45 -0.7 30.8 11.04 0.435
11:36 1016 30 845 24.95 10.6 51 45 -1 30.3 11.02 0.434
11:37 1016 30 845 24.95 10.6 51 46 -0.4 31.2 11.08 0.436
11:38 1016 30 845 24.95 10.7 51.3 46 -0.4 31.3 11.22 0.442
11:39 1016 30 845 24.95 10.8 51.4 46 -0.4 31.3 11.26 0.443
11:40 1016 30 845 24.95 10.8 51.4 43 -1.1 29.9 11.21 0.441
11:41 1016 30 845 24.95 10.7 51.3 46 -0.3 31.5 11.17 0.44
11:42 1016 30 845 24.95 10.9 51.5 48 0.4 32.7 11.34 0.446
11:43 1016 30 845 24.95 11.1 52 42 -1.3 29.7 11.54 0.454
11:44 1016 30 845 24.95 11.2 52.2 41 -1.3 29.6 11.68 0.46
11:45 1016 30 845 24.95 11.3 52.3 44 -0.4 31.4 11.72 0.461
11:46 1016 30 845 24.95 11.3 52.3 43 -0.7 30.8 11.73 0.462
11:47 1015 29.97 845 24.95 11.4 52.5 42 -0.9 30.3 11.83 0.466
11:48 1015 29.97 845 24.95 11.6 52.8 43 -0.5 31.1 12.07 0.475
11:49 1015 29.97 845 24.95 11.8 53.3 40 -1.2 29.8 12.24 0.482
11:50 1015 29.97 845 24.95 11.9 53.4 39 -1.4 29.4 12.34 0.486
11:51 1015 29.97 845 24.95 11.8 53.3 38 -2.1 28.3 12.26 0.483
11:52 1015 29.97 845 24.95 11.9 53.4 38 -2 28.5 12.28 0.483
11:53 1015 29.97 845 24.95 11.9 53.4 40 -1.4 29.5 12.34 0.486
11:54 1015 29.97 845 24.95 12 53.5 41 -0.9 30.4 12.38 0.487
11:55 1015 29.97 845 24.95 12.1 53.7 38 -1.7 28.9 12.52 0.493
11:56 1015 29.97 844 24.92 12 53.6 35 -3 26.5 12.46 0.491
11:57 1015 29.97 844 24.92 12 53.6 39 -1.3 29.6 12.42 0.489
11:58 1015 29.97 844 24.92 12.1 53.8 42 -0.4 31.2 12.59 0.496
11:59 1015 29.97 844 24.92 12.5 54.4 36 -2.2 28.1 12.89 0.507
12:00 1015 29.97 844 24.92 12.5 54.4 40 -0.7 30.7 12.9 0.508
12:01 1015 29.97 844 24.92 12.5 54.4 35 -2.7 27.2 12.93 0.509
12:02 1015 29.97 844 24.92 12.5 54.5 35 -2.4 27.7 12.93 0.509
12:03 1015 29.97 844 24.92 12.6 54.6 38 -1.5 29.3 13.02 0.513
12:04 1015 29.97 844 24.92 12.7 54.8 40 -0.5 31.1 13.07 0.515
12:05 1015 29.97 844 24.92 12.6 54.7 37 -1.5 29.4 13.06 0.514
12:06 1015 29.97 844 24.92 12.4 54.2 36 -2.3 27.9 12.81 0.504
12:07 1015 29.97 844 24.92 12.1 53.8 39 -1.3 29.6 12.51 0.493
12:08 1015 29.97 844 24.92 11.9 53.4 40 -1.2 29.8 12.37 0.487
12:09 1015 29.97 844 24.92 11.9 53.4 39 -1.7 28.9 12.3 0.484
12:10 1015 29.97 844 24.92 11.8 53.3 36 -2.6 27.3 12.29 0.484
12:11 1015 29.97 844 24.92 11.8 53.2 38 -2 28.5 12.22 0.481
12:12 1015 29.97 844 24.92 11.8 53.2 37 -2.4 27.7 12.24 0.482
12:13 1015 29.97 844 24.92 11.9 53.3 36 -2.7 27.1 12.3 0.484
12:14 1015 29.97 844 24.92 11.9 53.4 39 -1.6 29.1 12.36 0.487
12:15 1015 29.97 844 24.92 12.1 53.8 36 -2.6 27.4 12.58 0.495
12:16 1015 29.97 844 24.92 12.1 53.8 37 -2 28.3 12.56 0.494
12:17 1015 29.97 844 24.92 12.2 53.9 38 -1.6 29.1 12.65 0.498
12:18 1015 29.97 844 24.92 12.2 54 36 -2.4 27.7 12.74 0.502
12:19 1015 29.97 844 24.92 12.2 53.9 36 -2.4 27.6 12.66 0.498
12:20 1015 29.97 844 24.92 12.1 53.8 40 -0.9 30.4 12.62 0.497
12:21 1015 29.97 844 24.92 12.2 53.9 38 -1.7 28.9 12.66 0.498
12:22 1015 29.97 844 24.92 12 53.6 38 -1.8 28.8 12.5 0.492
12:23 1015 29.97 844 24.92 11.9 53.4 37 -2.4 27.7 12.32 0.485
12:24 1015 29.97 844 24.92 11.7 53.1 38 -2.1 28.2 12.18 0.48
12:25 1014 29.94 844 24.92 11.7 53.1 38 -2.2 28 12.14 0.478
12:26 1014 29.94 844 24.92 11.8 53.3 35 -3 26.5 12.23 0.481
12:27 1014 29.94 844 24.92 11.9 53.4 36 -2.8 27 12.38 0.487
12:28 1014 29.94 844 24.92 12.1 53.9 38 -1.9 28.6 12.6 0.496
12:29 1014 29.94 844 24.92 12.4 54.3 37 -1.8 28.8 12.86 0.506
12:30 1014 29.94 843 24.89 12.5 54.5 37 -1.8 28.7 13 0.512
12:31 1014 29.94 843 24.89 12.5 54.6 34 -2.7 27.2 12.98 0.511
12:32 1014 29.94 843 24.89 12.4 54.4 34 -3.1 26.5 12.92 0.509
12:33 1014 29.94 843 24.89 12.4 54.4 38 -1.6 29.2 12.9 0.508
12:34 1014 29.94 843 24.89 12.5 54.5 37 -1.6 29.1 13.01 0.512
12:35 1014 29.94 843 24.89 12.6 54.6 36 -1.8 28.7 13.09 0.515
12:36 1014 29.94 843 24.89 12.5 54.6 36 -2 28.5 13.07 0.515
12:37 1014 29.94 843 24.89 12.5 54.6 37 -1.6 29.1 13.03 0.513
12:38 1014 29.94 843 24.89 12.4 54.3 36 -2.1 28.2 12.86 0.506
12:39 1014 29.94 843 24.89 12.3 54.2 38 -1.7 29 12.76 0.502
12:40 1014 29.94 843 24.89 12.3 54.1 38 -1.5 29.3 12.74 0.502
12:41 1014 29.94 843 24.89 12.3 54.2 36 -2.3 27.9 12.79 0.504
12:42 1014 29.94 843 24.89 12.4 54.4 35 -2.5 27.5 12.88 0.507
12:43 1014 29.94 843 24.89 12.5 54.5 39 -0.9 30.4 12.93 0.509
12:44 1014 29.94 843 24.89 12.8 55.1 39 -0.7 30.7 13.24 0.521
12:45 1014 29.94 843 24.89 13 55.3 38 -1.1 30.1 13.42 0.528
12:46 1014 29.94 843 24.89 13.1 55.6 38 -1 30.2 13.56 0.534
12:47 1014 29.94 843 24.89 13.2 55.7 37 -1 30.2 13.64 0.537
12:48 1014 29.94 843 24.89 13.3 55.9 36 -1.2 29.8 13.76 0.542
12:49 1014 29.94 843 24.89 13.4 56.1 35 -1.7 28.9 13.83 0.544
12:50 1014 29.94 843 24.89 13.5 56.2 34 -1.9 28.6 13.89 0.547
12:51 1014 29.94 843 24.89 13.5 56.4 38 -0.5 31.1 14 0.551
12:52 1014 29.94 843 24.89 13.6 56.4 36 -1 30.3 14.01 0.552
12:53 1014 29.94 843 24.89 13.6 56.4 36 -1.1 30.1 14.02 0.552
12:54 1014 29.94 843 24.89 13.5 56.3 34 -2 28.4 14 0.551
12:55 1014 29.94 843 24.89 13.4 56.1 36 -1.2 29.8 13.91 0.548
12:56 1014 29.94 843 24.89 13.4 56.2 34 -1.9 28.6 13.88 0.546
12:57 1014 29.94 843 24.89 13.5 56.3 36 -1.2 29.8 13.94 0.549
12:58 1014 29.94 843 24.89 13.6 56.4 35 -1.3 29.6 14.06 0.554
12:59 1014 29.94 843 24.89 13.6 56.4 36 -1 30.2 14.03 0.552
13:00 1014 29.94 843 24.89 13.6 56.5 35 -1.6 29.1 14.06 0.554
13:01 1014 29.94 843 24.89 13.6 56.5 34 -1.8 28.8 14.05 0.553
13:02 1014 29.94 843 24.89 13.6 56.5 35 -1.7 29 14.1 0.555
13:03 1014 29.94 843 24.89 13.7 56.6 32 -2.7 27.1 14.09 0.555
13:04 1014 29.94 843 24.89 13.6 56.5 32 -2.5 27.4 14.05 0.553
13:05 1014 29.94 843 24.89 13.7 56.7 35 -1.6 29.2 14.17 0.558
13:06 1014 29.94 843 24.89 13.9 56.9 33 -1.9 28.6 14.33 0.564
13:07 1014 29.94 843 24.89 13.9 57 33 -2.1 28.2 14.36 0.565
13:08 1014 29.94 843 24.89 14 57.2 34 -1.4 29.6 14.46 0.569
13:09 1014 29.94 843 24.89 14 57.2 35 -1.2 29.8 14.5 0.571
13:10 1014 29.94 843 24.89 14.1 57.3 33 -1.8 28.8 14.5 0.571
13:11 1013 29.91 843 24.89 14 57.3 35 -1.3 29.7 14.53 0.572
13:12 1013 29.91 843 24.89 14.1 57.4 36 -0.8 30.5 14.59 0.574
13:13 1013 29.91 843 24.89 14.2 57.6 37 -0.2 31.6 14.66 0.577
13:14 1013 29.91 843 24.89 14.3 57.7 33 -1.7 28.9 14.77 0.581
13:15 1013 29.91 843 24.89 14.4 57.8 36 -0.4 31.2 14.84 0.584
13:16 1013 29.91 843 24.89 14.3 57.8 34 -1.4 29.5 14.81 0.583
13:17 1013 29.91 842 24.86 14.3 57.8 33 -1.6 29.1 14.81 0.583
13:18 1013 29.91 842 24.86 14.2 57.6 34 -1.4 29.5 14.71 0.579
13:19 1013 29.91 842 24.86 14.2 57.6 35 -0.8 30.5 14.68 0.578
13:20 1013 29.91 842 24.86 14.2 57.5 32 -2.1 28.2 14.68 0.578
13:21 1013 29.91 842 24.86 14.1 57.3 35 -1.2 29.8 14.52 0.572
13:22 1013 29.91 842 24.86 14.1 57.4 33 -1.8 28.7 14.57 0.574
13:23 1013 29.91 842 24.86 14 57.3 33 -1.8 28.8 14.5 0.571
13:24 1013 29.91 842 24.86 14 57.1 36 -0.6 30.9 14.4 0.567
13:25 1013 29.91 842 24.86 13.9 57 36 -0.7 30.8 14.34 0.565
13:26 1013 29.91 842 24.86 13.8 56.8 36 -0.8 30.6 14.24 0.561
13:27 1013 29.91 842 24.86 13.6 56.4 36 -1.2 29.9 14.03 0.552
13:28 1013 29.91 842 24.86 13.3 56 35 -1.8 28.8 13.78 0.543
13:29 1013 29.91 842 24.86 13.2 55.7 37 -1.1 30 13.64 0.537
13:30 1013 29.91 842 24.86 13.2 55.7 37 -1.2 29.9 13.59 0.535
13:31 1013 29.91 842 24.86 13.2 55.8 37 -1 30.3 13.6 0.535
13:32 1013 29.91 842 24.86 13.2 55.8 37 -1.1 30 13.68 0.539
13:33 1013 29.91 842 24.86 13.3 55.9 38 -0.7 30.7 13.7 0.539
13:34 1013 29.91 842 24.86 13.3 56 38 -0.7 30.8 13.77 0.542
13:35 1013 29.91 842 24.86 13.4 56 36 -1.2 29.8 13.77 0.542
13:36 1013 29.91 842 24.86 13.3 56 39 -0.3 31.5 13.75 0.541
13:37 1013 29.91 842 24.86 13.4 56.1 38 -0.6 30.9 13.82 0.544
13:38 1013 29.91 842 24.86 13.4 56.1 38 -0.5 31.2 13.79 0.543
13:39 1013 29.91 842 24.86 13.4 56 37 -0.8 30.5 13.76 0.542
13:40 1013 29.91 842 24.86 13.3 55.9 37 -1 30.3 13.69 0.539
13:41 1013 29.91 842 24.86 13.2 55.7 39 -0.5 31.2 13.59 0.535
13:42 1013 29.91 842 24.86 13.1 55.6 40 -0.1 31.9 13.56 0.534
13:43 1013 29.91 842 24.86 13 55.4 39 -0.7 30.7 13.44 0.529
13:44 1013 29.91 842 24.86 13 55.3 41 0.1 32.2 13.4 0.528
13:45 1013 29.91 842 24.86 12.9 55.2 38 -0.9 30.4 13.33 0.525
13:46 1013 29.91 842 24.86 12.9 55.2 39 -0.6 31 13.24 0.521
13:47 1013 29.91 842 24.86 12.8 55.1 39 -0.7 30.7 13.23 0.521
13:48 1013 29.91 842 24.86 12.8 55 38 -1.2 29.9 13.18 0.519
13:49 1013 29.91 842 24.86 12.7 54.9 38 -1.1 30 13.14 0.517
13:50 1013 29.91 842 24.86 12.7 54.8 39 -0.9 30.5 13.08 0.515
13:51 1013 29.91 842 24.86 12.7 54.8 41 -0.3 31.5 13.11 0.516
13:52 1013 29.91 842 24.86 12.7 54.8 41 -0.3 31.5 13.09 0.515
13:53 1013 29.91 842 24.86 12.7 54.9 38 -1.1 30 13.13 0.517
13:54 1013 29.91 842 24.86 12.8 55 39 -0.7 30.8 13.16 0.518
13:55 1013 29.91 842 24.86 12.8 55 38 -1.2 29.8 13.18 0.519
13:56 1013 29.91 842 24.86 12.8 55 38 -1.2 29.8 13.19 0.519
13:57 1013 29.91 842 24.86 12.7 54.9 38 -1.3 29.6 13.15 0.518
13:58 1013 29.91 842 24.86 12.7 54.8 38 -1.2 29.8 13.09 0.515
13:59 1013 29.91 842 24.86 12.6 54.7 37 -1.5 29.3 12.99 0.511
14:00 1013 29.91 842 24.86 12.5 54.5 37 -1.7 28.9 12.92 0.509
14:01 1013 29.91 842 24.86 12.5 54.4 38 -1.3 29.7 12.87 0.507
14:02 1013 29.91 842 24.86 12.5 54.4 39 -1 30.2 12.88 0.507
14:03 1013 29.91 842 24.86 12.5 54.4 39 -1 30.2 12.88 0.507
14:04 1013 29.91 842 24.86 12.5 54.5 40 -0.8 30.6 12.9 0.508
14:05 1013 29.91 842 24.86 12.6 54.7 37 -1.6 29.1 12.99 0.511
14:06 1013 29.91 842 24.86 12.6 54.7 38 -1.3 29.6 13.03 0.513
14:07 1013 29.91 842 24.86 12.6 54.7 39 -0.9 30.3 12.98 0.511
14:08 1013 29.91 842 24.86 12.6 54.7 37 -1.7 28.9 13.01 0.512
14:09 1013 29.91 842 24.86 12.6 54.7 38 -1.4 29.4 12.99 0.511
14:10 1013 29.91 842 24.86 12.6 54.7 38 -1.4 29.5 13.05 0.514
14:11 1013 29.91 842 24.86 12.6 54.7 37 -1.5 29.2 13.02 0.513
14:12 1013 29.91 842 24.86 12.6 54.7 39 -1 30.2 13.04 0.513
14:13 1013 29.91 842 24.86 12.7 54.8 38 -1 30.1 13.09 0.515
14:14 1012 29.88 842 24.86 12.8 55 39 -0.7 30.7 13.22 0.52
14:15 1012 29.88 842 24.86 12.8 55.1 38 -1.2 29.9 13.26 0.522
14:16 1012 29.88 842 24.86 12.8 55.1 37 -1.4 29.5 13.24 0.521
14:17 1012 29.88 842 24.86 12.8 55 36 -1.9 28.6 13.16 0.518
14:18 1012 29.88 842 24.86 12.7 54.9 37 -1.3 29.6 13.16 0.518
14:19 1012 29.88 842 24.86 12.8 55 38 -1.3 29.7 13.17 0.519
14:20 1012 29.88 842 24.86 12.8 55 39 -0.9 30.4 13.2 0.52
14:21 1012 29.88 842 24.86 12.8 55.1 40 -0.5 31.1 13.24 0.521
14:22 1012 29.88 842 24.86 12.8 55.1 38 -1 30.2 13.24 0.521
14:23 1012 29.88 841 24.83 12.8 55.1 37 -1.4 29.5 13.28 0.523
14:24 1012 29.88 841 24.83 12.8 55 38 -1.1 30.1 13.22 0.52
14:25 1012 29.88 841 24.83 12.7 54.9 37 -1.5 29.2 13.13 0.517
14:26 1012 29.88 841 24.83 12.6 54.8 38 -1.1 30.1 13.06 0.514
14:27 1012 29.88 841 24.83 12.6 54.7 38 -1.4 29.5 12.99 0.511
14:28 1012 29.88 841 24.83 12.5 54.5 37 -1.7 28.9 12.9 0.508
14:29 1012 29.88 841 24.83 12.5 54.4 39 -1.1 30.1 12.86 0.506
14:30 1012 29.88 841 24.83 12.4 54.3 39 -1 30.2 12.81 0.504
14:31 1012 29.88 841 24.83 12.4 54.3 40 -0.9 30.5 12.76 0.502
14:32 1012 29.88 841 24.83 12.3 54.2 38 -1.4 29.5 12.73 0.501
14:33 1012 29.88 841 24.83 12.3 54.2 38 -1.5 29.4 12.69 0.5
14:34 1012 29.88 841 24.83 12.3 54.1 37 -2.1 28.2 12.65 0.498
14:35 1012 29.88 841 24.83 12.2 54 38 -1.6 29 12.67 0.499
14:36 1012 29.88 841 24.83 12.2 54 38 -1.5 29.3 12.6 0.496
14:37 1012 29.88 841 24.83 12.1 53.8 39 -1.3 29.6 12.55 0.494
14:38 1012 29.88 841 24.83 12.1 53.7 39 -1.6 29.2 12.45 0.49
14:39 1012 29.88 841 24.83 12 53.6 39 -1.5 29.3 12.41 0.489
14:40 1012 29.88 841 24.83 12 53.6 38 -1.7 29 12.37 0.487
14:41 1012 29.88 841 24.83 11.9 53.5 39 -1.5 29.3 12.32 0.485
14:42 1012 29.88 841 24.83 11.9 53.4 38 -2 28.4 12.28 0.483
14:43 1012 29.88 841 24.83 11.8 53.3 38 -1.8 28.7 12.21 0.481
14:44 1012 29.88 841 24.83 11.7 53.1 42 -0.8 30.6 12.18 0.48
14:45 1012 29.88 841 24.83 11.7 53 40 -1.5 29.3 12.05 0.474
14:46 1012 29.88 841 24.83 11.6 52.8 40 -1.5 29.3 11.96 0.471
14:47 1012 29.88 841 24.83 11.5 52.6 41 -1.3 29.6 11.84 0.466
14:48 1012 29.88 841 24.83 11.4 52.5 40 -1.8 28.7 11.78 0.464
14:49 1012 29.88 841 24.83 11.4 52.4 39 -2 28.5 11.73 0.462
14:50 1012 29.88 841 24.83 11.3 52.3 39 -2.2 28 11.68 0.46
14:51 1012 29.88 841 24.83 11.3 52.3 39 -2.2 28 11.62 0.457
14:52 1012 29.88 841 24.83 11.2 52.1 39 -2.2 28.1 11.6 0.457
14:53 1012 29.88 841 24.83 11.2 52.1 40 -1.8 28.7 11.55 0.455
14:54 1012 29.88 841 24.83 11.2 52.1 39 -2.3 27.9 11.54 0.454
14:55 1012 29.88 841 24.83 11.2 52.1 40 -1.7 28.9 11.57 0.456
14:56 1012 29.88 841 24.83 11.2 52.1 40 -1.8 28.7 11.51 0.453
14:57 1012 29.88 841 24.83 11.1 52 41 -1.6 29.1 11.51 0.453
14:58 1012 29.88 841 24.83 11.1 51.9 40 -1.9 28.5 11.42 0.45
14:59 1012 29.88 841 24.83 11.1 51.9 41 -1.8 28.7 11.46 0.451
15:00 1012 29.88 841 24.83 11.1 51.9 40 -2.1 28.2 11.42 0.45
15:01 1012 29.88 841 24.83 11.1 52 39 -2.3 27.8 11.48 0.452
15:02 1012 29.88 841 24.83 11.1 52 38 -2.5 27.5 11.49 0.452
15:03 1011 29.85 841 24.83 11.2 52.1 38 -2.7 27.1 11.59 0.456
15:04 1011 29.85 841 24.83 11.2 52.2 39 -2.1 28.2 11.63 0.458
15:05 1012 29.88 841 24.83 11.2 52.1 38 -2.6 27.4 11.57 0.456
15:06 1012 29.88 841 24.83 11.2 52.1 38 -2.6 27.2 11.59 0.456
15:07 1012 29.88 841 24.83 11.2 52.2 37 -2.7 27.1 11.58 0.456
15:08 1012 29.88 841 24.83 11.3 52.3 39 -2.2 28 11.62 0.457
15:09 1011 29.85 841 24.83 11.2 52.1 38 -2.4 27.6 11.59 0.456
15:10 1011 29.85 841 24.83 11.1 52 39 -2.4 27.6 11.52 0.454
15:11 1011 29.85 841 24.83 11.1 52 38 -2.5 27.5 11.52 0.454
15:12 1011 29.85 841 24.83 11.2 52.1 38 -2.5 27.6 11.52 0.454
15:13 1011 29.85 841 24.83 11.1 52 40 -2 28.3 11.52 0.454
15:14 1011 29.85 840 24.81 11.1 51.9 38 -2.8 27 11.5 0.453
15:15 1011 29.85 840 24.81 11.2 52.1 37 -3.1 26.5 11.51 0.453
15:16 1011 29.85 840 24.81 11.2 52.1 37 -3 26.6 11.55 0.455
15:17 1011 29.85 840 24.81 11.2 52.2 38 -2.7 27.2 11.59 0.456
15:18 1011 29.85 840 24.81 11.2 52.1 39 -2.4 27.7 11.51 0.453
15:19 1011 29.85 840 24.81 11.1 51.9 40 -2 28.4 11.47 0.452
15:20 1011 29.85 840 24.81 11 51.7 39 -2.3 27.9 11.37 0.448
15:21 1011 29.85 840 24.81 10.9 51.7 38 -2.9 26.8 11.33 0.446
15:22 1011 29.85 840 24.81 10.9 51.7 39 -2.5 27.5 11.33 0.446
15:23 1011 29.85 840 24.81 10.9 51.6 38 -2.8 27 11.28 0.444
15:24 1011 29.85 840 24.81 10.9 51.6 37 -3 26.5 11.28 0.444
15:25 1011 29.85 840 24.81 10.9 51.5 38 -2.8 26.9 11.26 0.443
15:26 1011 29.85 840 24.81 10.9 51.6 38 -2.9 26.7 11.26 0.443
15:27 1011 29.85 840 24.81 10.9 51.5 38 -2.8 27 11.22 0.442
15:28 1011 29.85 840 24.81 10.8 51.5 39 -2.7 27.2 11.21 0.441
15:29 1011 29.85 840 24.81 10.8 51.4 37 -3.2 26.2 11.17 0.44
15:30 1011 29.85 840 24.81 10.8 51.5 35 -4 24.8 11.23 0.442
15:31 1011 29.85 840 24.81 11.1 51.9 35 -3.6 25.5 11.45 0.451
15:32 1011 29.85 840 24.81 11.2 52.2 35 -3.6 25.5 11.6 0.457
15:33 1011 29.85 840 24.81 11.3 52.3 37 -3 26.7 11.63 0.458
15:34 1011 29.85 840 24.81 11.2 52.2 37 -3 26.7 11.62 0.457
15:35 1011 29.85 840 24.81 11.1 52 38 -2.7 27.1 11.49 0.452
15:36 1011 29.85 840 24.81 11 51.8 37 -3 26.6 11.43 0.45
15:37 1011 29.85 840 24.81 11 51.8 36 -3.5 25.8 11.4 0.449
15:38 1011 29.85 840 24.81 11 51.8 37 -3 26.6 11.41 0.449
15:39 1011 29.85 840 24.81 11 51.8 37 -3.1 26.4 11.4 0.449
15:40 1011 29.85 840 24.81 11 51.8 36 -3.4 25.8 11.36 0.447
15:41 1011 29.85 840 24.81 11 51.7 38 -2.8 26.9 11.36 0.447
15:42 1011 29.85 840 24.81 10.9 51.5 40 -2.3 27.8 11.28 0.444
15:43 1011 29.85 840 24.81 10.7 51.3 37 -3.2 26.2 11.14 0.439
15:44 1011 29.85 840 24.81 10.7 51.2 39 -2.7 27.2 11.06 0.435
15:45 1010 29.83 840 24.81 10.6 51 39 -2.7 27.1 11 0.433
15:46 1010 29.83 840 24.81 10.5 50.9 40 -2.4 27.7 10.94 0.431
15:47 1010 29.83 840 24.81 10.4 50.8 40 -2.5 27.5 10.84 0.427
15:48 1010 29.83 840 24.81 10.4 50.8 40 -2.7 27.1 10.8 0.425
15:49 1010 29.83 840 24.81 10.5 50.8 41 -2.3 27.8 10.83 0.426
15:50 1010 29.83 839 24.78 10.5 50.8 40 -2.5 27.5 10.86 0.428
15:51 1010 29.83 839 24.78 10.5 50.9 40 -2.5 27.4 10.89 0.429
15:52 1010 29.83 839 24.78 10.6 51.1 39 -2.8 27 10.95 0.431
15:53 1010 29.83 839 24.78 10.6 51.1 38 -3 26.7 11.01 0.433
15:54 1010 29.83 839 24.78 10.7 51.2 39 -2.6 27.3 11.03 0.434
15:55 1010 29.83 839 24.78 10.6 51 41 -2 28.4 11.02 0.434
15:56 1010 29.83 839 24.78 10.5 50.9 40 -2.3 27.8 10.9 0.429
15:57 1010 29.83 839 24.78 10.5 50.9 40 -2.6 27.3 10.89 0.429
15:58 1010 29.83 839 24.78 10.5 50.9 39 -2.7 27.1 10.88 0.428
15:59 1010 29.83 839 24.78 10.5 51 40 -2.5 27.5 10.9 0.429
16:00 1010 29.83 839 24.78 10.6 51 40 -2.6 27.4 10.96 0.431
16:01 1010 29.83 839 24.78 10.5 51 39 -2.9 26.8 10.91 0.43
16:02 1010 29.83 839 24.78 10.5 50.9 39 -2.9 26.8 10.89 0.429
16:03 1010 29.83 839 24.78 10.5 50.9 39 -2.9 26.8 10.92 0.43
16:04 1010 29.83 839 24.78 10.5 50.9 39 -2.9 26.9 10.88 0.428
16:05 1010 29.83 839 24.78 10.5 50.9 39 -2.8 27 10.86 0.428
16:06 1010 29.83 839 24.78 10.4 50.8 39 -2.9 26.8 10.83 0.426
16:07 1010 29.83 839 24.78 10.4 50.8 39 -3 26.6 10.85 0.427
16:08 1010 29.83 839 24.78 10.4 50.7 40 -2.5 27.5 10.83 0.426
16:09 1010 29.83 839 24.78 10.3 50.6 40 -2.6 27.3 10.73 0.422
16:10 1010 29.83 839 24.78 10.3 50.5 40 -2.8 26.9 10.68 0.42
16:11 1010 29.83 839 24.78 10.2 50.3 40 -2.8 27 10.62 0.418
16:12 1010 29.83 839 24.78 10.2 50.3 41 -2.6 27.4 10.59 0.417
16:13 1010 29.83 839 24.78 10.1 50.3 41 -2.6 27.4 10.52 0.414
16:14 1010 29.83 839 24.78 10.1 50.2 40 -2.7 27.1 10.54 0.415
16:15 1010 29.83 839 24.78 10.1 50.2 40 -2.7 27.2 10.51 0.414
16:16 1010 29.83 839 24.78 10 50.1 43 -2 28.4 10.48 0.413
16:17 1010 29.83 839 24.78 10 49.9 42 -2.2 28 10.39 0.409
16:18 1010 29.83 839 24.78 9.9 49.9 41 -2.6 27.4 10.35 0.407
16:19 1010 29.83 839 24.78 10 50.1 41 -2.6 27.3 10.4 0.409
16:20 1010 29.83 839 24.78 10 50.1 41 -2.4 27.6 10.47 0.412
16:21 1010 29.83 839 24.78 10.1 50.2 40 -3 26.6 10.48 0.413
16:22 1010 29.83 839 24.78 10.2 50.4 39 -3 26.7 10.6 0.417
16:23 1010 29.83 839 24.78 10.4 50.6 39 -2.8 26.9 10.71 0.422
16:24 1010 29.83 839 24.78 10.4 50.7 39 -3 26.6 10.8 0.425
16:25 1010 29.83 839 24.78 10.4 50.8 38 -3.1 26.4 10.83 0.426
16:26 1010 29.83 839 24.78 10.4 50.8 41 -2.4 27.7 10.81 0.426
16:27 1010 29.83 839 24.78 10.4 50.7 39 -3.1 26.4 10.72 0.422
16:28 1010 29.83 839 24.78 10.4 50.7 39 -3 26.6 10.77 0.424
16:29 1010 29.83 839 24.78 10.4 50.7 39 -2.8 26.9 10.76 0.424
16:30 1010 29.83 839 24.78 10.4 50.7 40 -2.7 27.2 10.8 0.425
16:31 1010 29.83 839 24.78 10.3 50.6 40 -2.5 27.4 10.74 0.423
16:32 1010 29.83 839 24.78 10.3 50.5 41 -2.4 27.7 10.69 0.421
16:33 1010 29.83 839 24.78 10.3 50.5 38 -3.4 25.9 10.66 0.42
16:34 1010 29.83 839 24.78 10.4 50.7 39 -3.1 26.4 10.74 0.423
16:35 1010 29.83 839 24.78 10.4 50.8 38 -3.3 26 10.85 0.427
16:36 1010 29.83 839 24.78 10.5 50.9 38 -3.1 26.4 10.89 0.429
16:37 1010 29.83 839 24.78 10.5 50.9 39 -2.9 26.7 10.9 0.429
16:38 1010 29.83 839 24.78 10.5 50.8 38 -3.2 26.2 10.86 0.428
16:39 1010 29.83 839 24.78 10.6 51 37 -3.3 26 10.93 0.43
16:40 1010 29.83 839 24.78 10.6 51 39 -2.8 26.9 10.96 0.431
16:41 1009 29.8 839 24.78 10.5 51 39 -2.7 27.1 10.9 0.429
16:42 1009 29.8 839 24.78 10.5 50.9 38 -3.2 26.2 10.9 0.429
16:43 1009 29.8 839 24.78 10.6 51.1 37 -3.5 25.7 10.97 0.432
16:44 1009 29.8 839 24.78 10.6 51.1 37 -3.3 26.1 11.02 0.434
16:45 1009 29.8 839 24.78 10.7 51.2 36 -3.8 25.2 11.04 0.435
16:46 1009 29.8 839 24.78 10.8 51.5 37 -3.4 25.9 11.15 0.439
16:47 1009 29.8 838 24.75 10.9 51.6 35 -4.1 24.7 11.25 0.443
16:48 1009 29.8 838 24.75 11 51.8 35 -3.9 25 11.39 0.448
16:49 1009 29.8 838 24.75 11.1 51.9 35 -3.8 25.2 11.48 0.452
16:50 1009 29.8 838 24.75 11.1 52.1 36 -3.4 25.9 11.5 0.453
16:51 1009 29.8 838 24.75 11.1 52 35 -3.9 25 11.52 0.454
16:52 1009 29.8 838 24.75 11.1 52 35 -3.7 25.3 11.51 0.453
16:53 1009 29.8 838 24.75 11.1 52 35 -3.7 25.3 11.51 0.453
16:54 1009 29.8 838 24.75 11.1 52 36 -3.5 25.7 11.51 0.453
16:55 1009 29.8 838 24.75 11 51.9 36 -3.4 26 11.43 0.45
16:56 1009 29.8 838 24.75 11 51.8 35 -4 24.8 11.44 0.45
16:57 1009 29.8 838 24.75 11 51.9 33 -4.4 24 11.44 0.45
16:58 1009 29.8 838 24.75 11.1 52 34 -4 24.8 11.48 0.452
16:59 1009 29.8 838 24.75 11.1 52 33 -4.4 24 11.47 0.452
17:00 1009 29.8 838 24.75 11.1 52 33 -4.3 24.2 11.5 0.453
17:01 1009 29.8 838 24.75 11.1 52 34 -4.3 24.3 11.53 0.454
17:02 1009 29.8 838 24.75 11.1 52 34 -4.1 24.6 11.45 0.451
17:03 1009 29.8 838 24.75 10.9 51.7 34 -4.2 24.4 11.37 0.448
17:04 1009 29.8 838 24.75 10.9 51.7 34 -4.3 24.2 11.33 0.446
17:05 1009 29.8 838 24.75 10.9 51.7 34 -4.2 24.4 11.32 0.446
17:06 1009 29.8 838 24.75 10.9 51.6 34 -4.3 24.2 11.3 0.445
17:07 1009 29.8 838 24.75 11 51.8 33 -4.4 24 11.38 0.448
17:08 1009 29.8 838 24.75 11 51.9 33 -4.7 23.5 11.43 0.45
17:09 1009 29.8 838 24.75 11.1 51.9 33 -4.6 23.7 11.5 0.453
17:10 1009 29.8 838 24.75 11.1 52 34 -4 24.8 11.51 0.453
17:11 1009 29.8 838 24.75 11.1 51.9 36 -3.5 25.7 11.43 0.45
17:12 1009 29.8 838 24.75 10.9 51.7 35 -4.1 24.6 11.34 0.446
17:13 1009 29.8 838 24.75 10.9 51.7 34 -4.1 24.6 11.33 0.446
17:14 1009 29.8 838 24.75 11 51.7 35 -4 24.8 11.32 0.446
17:15 1009 29.8 838 24.75 10.9 51.6 34 -4.3 24.3 11.31 0.445
17:16 1009 29.8 838 24.75 10.9 51.5 35 -4.1 24.6 11.28 0.444
17:17 1009 29.8 838 24.75 10.8 51.4 36 -3.8 25.1 11.18 0.44
17:18 1008 29.77 838 24.75 10.7 51.3 34 -4.3 24.2 11.12 0.438
17:19 1008 29.77 838 24.75 10.7 51.2 36 -3.6 25.6 11.07 0.436
17:20 1008 29.77 838 24.75 10.6 51 33 -5.1 22.8 10.97 0.432
17:21 1008 29.77 838 24.75 10.6 51.1 33 -4.9 23.2 11.02 0.434
17:22 1008 29.77 837 24.72 10.6 51.2 33 -4.8 23.4 11.03 0.434
17:23 1008 29.77 837 24.72 10.6 51 34 -4.6 23.7 10.98 0.432
17:24 1008 29.77 838 24.75 10.6 51.1 35 -4.3 24.2 10.98 0.432
17:25 1008 29.77 837 24.72 10.5 50.9 34 -4.6 23.8 10.95 0.431
17:26 1008 29.77 837 24.72 10.5 50.9 33 -4.9 23.1 10.87 0.428
17:27 1008 29.77 837 24.72 10.4 50.8 35 -4.2 24.5 10.86 0.428
17:28 1008 29.77 837 24.72 10.3 50.5 36 -4.1 24.6 10.74 0.423
17:29 1008 29.77 837 24.72 10.2 50.3 36 -4.2 24.4 10.6 0.417
17:30 1008 29.77 837 24.72 10.1 50.2 36 -4.4 24 10.48 0.413
17:31 1008 29.77 837 24.72 10.1 50.1 35 -4.6 23.7 10.47 0.412
17:32 1008 29.77 837 24.72 10 50 35 -4.7 23.5 10.44 0.411
17:33 1008 29.77 837 24.72 10.1 50.1 35 -4.5 23.9 10.46 0.412
17:34 1008 29.77 837 24.72 10.1 50.1 36 -4.2 24.5 10.47 0.412
17:35 1008 29.77 837 24.72 10 50 37 -4 24.7 10.41 0.41
17:36 1008 29.77 837 24.72 9.9 49.9 36 -4.5 24 10.32 0.406
17:37 1008 29.77 837 24.72 10 49.9 37 -4.2 24.5 10.34 0.407
17:38 1008 29.77 837 24.72 9.9 49.8 35 -4.8 23.3 10.32 0.406
17:39 1008 29.77 837 24.72 10 49.9 36 -4.5 23.8 10.33 0.407
17:40 1008 29.77 837 24.72 10 50 34 -5 23 10.37 0.408
17:41 1008 29.77 837 24.72 10.1 50.2 35 -4.7 23.5 10.49 0.413
17:42 1008 29.77 837 24.72 10.1 50.1 34 -4.9 23.1 10.47 0.412
17:43 1008 29.77 837 24.72 10.1 50.3 34 -4.8 23.3 10.5 0.413
17:44 1007 29.74 837 24.72 10.2 50.4 33 -5.4 22.2 10.57 0.416
17:45 1007 29.74 837 24.72 10.3 50.6 33 -5.1 22.8 10.7 0.421
17:46 1007 29.74 837 24.72 10.4 50.7 33 -5.4 22.4 10.75 0.423
17:47 1007 29.74 836 24.69 10.5 50.8 32 -5.4 22.2 10.85 0.427
17:48 1007 29.74 836 24.69 10.5 50.8 34 -4.9 23.3 10.85 0.427
17:49 1007 29.74 836 24.69 10.4 50.7 33 -5.1 22.9 10.79 0.425
17:50 1007 29.74 836 24.69 10.4 50.6 34 -4.9 23.1 10.77 0.424
17:51 1007 29.74 836 24.69 10.3 50.5 34 -4.9 23.1 10.67 0.42
17:52 1007 29.74 836 24.69 10.2 50.3 34 -4.8 23.3 10.53 0.415
17:53 1007 29.74 836 24.69 10.1 50.2 34 -5 23.1 10.5 0.413
17:54 1007 29.74 836 24.69 10.1 50.3 34 -5 23 10.57 0.416
17:55 1007 29.74 836 24.69 10.1 50.3 34 -4.8 23.3 10.54 0.415
17:56 1007 29.74 836 24.69 10.2 50.4 33 -5.2 22.6 10.6 0.417
17:57 1007 29.74 836 24.69 10.3 50.5 34 -4.8 23.4 10.63 0.419
17:58 1007 29.74 836 24.69 10.2 50.3 33 -5.4 22.3 10.58 0.417
17:59 1007 29.74 836 24.69 10.3 50.6 32 -5.7 21.8 10.72 0.422
18:00 1007 29.74 836 24.69 10.5 50.9 34 -4.8 23.3 10.87 0.428
18:01 1007 29.74 836 24.69 10.4 50.7 33 -5.3 22.5 10.79 0.425
18:02 1007 29.74 836 24.69 10.3 50.6 32 -5.5 22 10.7 0.421
18:03 1007 29.74 836 24.69 10.3 50.5 35 -4.4 24.1 10.68 0.42
18:04 1007 29.74 836 24.69 10.1 50.2 33 -5.3 22.5 10.52 0.414
18:05 1007 29.74 836 24.69 10.1 50.1 36 -4.4 24 10.44 0.411
18:06 1007 29.74 836 24.69 9.9 49.8 36 -4.5 23.9 10.34 0.407
18:07 1007 29.74 836 24.69 9.8 49.6 36 -4.4 24 10.17 0.4
18:08 1007 29.74 836 24.69 9.6 49.3 36 -4.8 23.4 9.99 0.393
18:09 1007 29.74 836 24.69 9.5 49.1 37 -4.6 23.7 9.91 0.39
18:10 1007 29.74 836 24.69 9.4 49 36 -4.7 23.5 9.84 0.387
18:11 1007 29.74 836 24.69 9.3 48.8 39 -3.9 24.9 9.76 0.384
18:12 1007 29.74 836 24.69 9.2 48.5 39 -3.9 24.9 9.6 0.378
18:13 1007 29.74 836 24.69 9 48.1 38 -4.6 23.6 9.42 0.371
18:14 1007 29.74 836 24.69 9.1 48.4 35 -5.7 21.7 9.47 0.373
18:15 1007 29.74 836 24.69 9.4 49 33 -6 21.2 9.76 0.384
18:16 1007 29.74 836 24.69 9.8 49.6 35 -5 23 10.14 0.399
18:17 1007 29.74 836 24.69 9.8 49.7 35 -5.1 22.8 10.18 0.401
18:18 1007 29.74 836 24.69 9.8 49.7 37 -4.3 24.3 10.19 0.401
18:19 1007 29.74 836 24.69 9.7 49.4 37 -4.3 24.3 10.09 0.397
18:20 1007 29.74 836 24.69 9.7 49.4 35 -5 23 10.02 0.394
18:21 1007 29.74 836 24.69 9.8 49.6 36 -4.7 23.5 10.12 0.398
18:22 1007 29.74 836 24.69 9.7 49.4 37 -4.3 24.3 10.05 0.396
18:23 1007 29.74 836 24.69 9.5 49.1 38 -4.3 24.3 9.92 0.391
18:24 1007 29.74 836 24.69 9.3 48.8 38 -4.4 24.1 9.77 0.385
18:25 1006 29.71 836 24.69 9.4 49 35 -5.1 22.8 9.82 0.387
18:26 1006 29.71 836 24.69 9.7 49.4 34 -5.3 22.5 10.05 0.396
18:27 1006 29.71 836 24.69 9.9 49.8 34 -5.4 22.3 10.23 0.403
18:28 1006 29.71 836 24.69 10 50.1 35 -4.7 23.5 10.36 0.408
18:29 1006 29.71 836 24.69 10 50 35 -4.9 23.3 10.45 0.411
18:30 1006 29.71 836 24.69 10 49.9 33 -5.4 22.3 10.36 0.408
18:31 1006 29.71 836 24.69 9.9 49.9 35 -4.9 23.2 10.3 0.406
18:32 1007 29.74 836 24.69 9.9 49.9 35 -4.7 23.6 10.27 0.404
18:33 1007 29.74 836 24.69 9.9 49.8 33 -5.5 22.1 10.27 0.404
18:34 1007 29.74 836 24.69 10 50 34 -5.3 22.5 10.4 0.409
18:35 1007 29.74 836 24.69 10 49.9 36 -4.2 24.4 10.41 0.41
18:36 1007 29.74 836 24.69 9.9 49.7 33 -5.7 21.7 10.27 0.404
18:37 1007 29.74 836 24.69 10 50 33 -5.3 22.4 10.33 0.407
18:38 1007 29.74 836 24.69 10 49.9 33 -5.4 22.3 10.32 0.406
18:39 1007 29.74 836 24.69 9.9 49.9 35 -4.7 23.5 10.31 0.406
18:40 1007 29.74 836 24.69 9.9 49.7 33 -5.6 21.8 10.27 0.404
18:41 1006 29.71 836 24.69 9.9 49.8 33 -5.6 22 10.26 0.404
18:42 1006 29.71 836 24.69 10 49.9 33 -5.6 22 10.33 0.407
18:43 1006 29.71 836 24.69 10 50.1 32 -5.8 21.5 10.37 0.408
18:44 1006 29.71 836 24.69 10.2 50.3 33 -5.4 22.4 10.52 0.414
18:45 1006 29.71 836 24.69 10.2 50.4 33 -5.4 22.3 10.6 0.417
18:46 1006 29.71 836 24.69 10.2 50.3 33 -5.4 22.2 10.58 0.417
18:47 1006 29.71 836 24.69 10.2 50.3 33 -5.4 22.3 10.56 0.416
18:48 1006 29.71 835 24.66 10.1 50.2 33 -5.4 22.2 10.47 0.412
18:49 1006 29.71 835 24.66 10.1 50.2 34 -5 23.1 10.45 0.411
18:50 1006 29.71 835 24.66 9.9 49.9 33 -5.6 22 10.31 0.406
18:51 1006 29.71 835 24.66 10 49.9 33 -5.5 22.1 10.32 0.406
18:52 1006 29.71 835 24.66 10 50 32 -5.9 21.4 10.43 0.411
18:53 1006 29.71 835 24.66 10.2 50.3 33 -5.3 22.4 10.55 0.415
18:54 1006 29.71 835 24.66 10.1 50.2 32 -5.6 21.9 10.49 0.413
18:55 1006 29.71 835 24.66 10.2 50.4 32 -5.6 21.9 10.6 0.417
18:56 1006 29.71 835 24.66 10.2 50.4 32 -5.6 21.9 10.61 0.418
18:57 1006 29.71 835 24.66 10.3 50.5 32 -5.8 21.6 10.66 0.42
18:58 1006 29.71 835 24.66 10.2 50.4 33 -5.5 22.2 10.63 0.419
18:59 1006 29.71 835 24.66 10.2 50.3 32 -5.7 21.8 10.56 0.416
19:00 1006 29.71 835 24.66 10.2 50.4 33 -5.4 22.3 10.59 0.417
19:01 1006 29.71 835 24.66 10.2 50.4 32 -5.7 21.7 10.64 0.419
19:02 1006 29.71 835 24.66 10.3 50.5 31 -6 21.3 10.66 0.42
19:03 1006 29.71 835 24.66 10.3 50.6 32 -5.6 22 10.7 0.421
19:04 1006 29.71 835 24.66 10.3 50.5 32 -5.5 22.1 10.62 0.418
19:05 1006 29.71 835 24.66 10.1 50.2 32 -5.6 21.9 10.51 0.414
19:06 1006 29.71 835 24.66 10.1 50.1 33 -5.4 22.3 10.44 0.411
19:07 1006 29.71 835 24.66 10 49.9 33 -5.4 22.3 10.31 0.406
19:08 1006 29.71 835 24.66 9.9 49.8 34 -5.4 22.3 10.28 0.405
19:09 1006 29.71 835 24.66 9.9 49.8 33 -5.6 21.9 10.29 0.405
19:10 1005 29.68 835 24.66 9.9 49.8 33 -5.5 22.2 10.27 0.404
19:11 1005 29.68 835 24.66 9.9 49.9 32 -5.8 21.6 10.33 0.407
19:12 1005 29.68 835 24.66 10 50.1 33 -5.6 21.9 10.42 0.41
19:13 1005 29.68 835 24.66 10 50.1 32 -5.9 21.4 10.45 0.411
19:14 1005 29.68 835 24.66 10.2 50.3 32 -5.7 21.7 10.52 0.414
19:15 1005 29.68 834 24.63 10.2 50.3 32 -5.8 21.6 10.53 0.415
19:16 1005 29.68 834 24.63 10.2 50.3 32 -5.8 21.6 10.55 0.415
19:17 1005 29.68 834 24.63 10.2 50.4 32 -5.7 21.7 10.6 0.417
19:18 1005 29.68 834 24.63 10.3 50.5 32 -5.7 21.7 10.64 0.419
19:19 1005 29.68 834 24.63 10.3 50.5 33 -5.4 22.4 10.64 0.419
19:20 1005 29.68 834 24.63 10.2 50.3 33 -5.5 22 10.51 0.414
19:21 1005 29.68 834 24.63 10.2 50.3 32 -5.9 21.3 10.57 0.416
19:22 1005 29.68 834 24.63 10.2 50.4 33 -5.3 22.4 10.62 0.418
19:23 1005 29.68 834 24.63 10.2 50.3 32 -5.7 21.8 10.54 0.415
19:24 1005 29.68 834 24.63 10.1 50.2 33 -5.4 22.3 10.49 0.413
19:25 1005 29.68 834 24.63 10.1 50.2 33 -5.3 22.5 10.49 0.413
19:26 1005 29.68 834 24.63 10 50.1 33 -5.5 22.1 10.42 0.41
19:27 1005 29.68 834 24.63 10.1 50.1 32 -5.7 21.7 10.46 0.412
19:28 1005 29.68 834 24.63 10.1 50.3 32 -5.6 21.9 10.52 0.414
19:29 1005 29.68 834 24.63 10.2 50.3 32 -5.6 21.9 10.55 0.415
19:30 1005 29.68 834 24.63 10.2 50.3 32 -5.6 21.9 10.54 0.415
19:31 1005 29.68 834 24.63 10.1 50.3 33 -5.5 22.1 10.54 0.415
19:32 1005 29.68 834 24.63 10.1 50.2 32 -5.9 21.4 10.49 0.413
19:33 1005 29.68 834 24.63 10.1 50.3 32 -5.6 21.9 10.5 0.413
19:34 1005 29.68 834 24.63 10.2 50.4 31 -6.2 20.9 10.58 0.417
19:35 1005 29.68 834 24.63 10.4 50.7 31 -5.8 21.5 10.8 0.425
19:36 1005 29.68 834 24.63 10.4 50.7 31 -6.1 20.9 10.77 0.424
19:37 1005 29.68 834 24.63 10.5 50.8 31 -5.8 21.5 10.84 0.427
19:38 1005 29.68 834 24.63 10.4 50.7 31 -5.9 21.5 10.79 0.425
19:39 1005 29.68 834 24.63 10.3 50.6 31 -5.9 21.5 10.74 0.423
19:40 1005 29.68 834 24.63 10.3 50.5 32 -5.7 21.8 10.66 0.42
19:41 1005 29.68 834 24.63 10.2 50.4 33 -5.4 22.2 10.58 0.417
19:42 1005 29.68 834 24.63 10.1 50.1 33 -5.4 22.3 10.45 0.411
19:43 1005 29.68 834 24.63 9.9 49.9 32 -5.9 21.3 10.34 0.407
19:44 1005 29.68 834 24.63 10 50 32 -5.9 21.3 10.42 0.41
19:45 1005 29.68 834 24.63 10.1 50.2 32 -6 21.3 10.49 0.413
19:46 1005 29.68 834 24.63 10.2 50.3 31 -6.1 21.1 10.57 0.416
19:47 1005 29.68 834 24.63 10.2 50.3 32 -5.9 21.3 10.57 0.416
19:48 1005 29.68 834 24.63 10.2 50.3 31 -6 21.2 10.54 0.415
19:49 1005 29.68 834 24.63 10.2 50.3 32 -5.8 21.6 10.57 0.416
19:50 1005 29.68 834 24.63 10.1 50.1 33 -5.6 21.9 10.46 0.412
19:51 1005 29.68 834 24.63 9.9 49.9 33 -5.6 22 10.29 0.405
19:52 1005 29.68 834 24.63 9.9 49.8 33 -5.7 21.7 10.24 0.403
19:53 1005 29.68 834 24.63 9.8 49.6 34 -5.3 22.5 10.21 0.402
19:54 1005 29.68 834 24.63 9.6 49.4 35 -5 23.1 10.06 0.396
19:55 1005 29.68 834 24.63 9.4 49 36 -4.9 23.2 9.85 0.388
19:56 1005 29.68 834 24.63 9.3 48.7 34 -5.6 21.9 9.68 0.381
19:57 1005 29.68 834 24.63 9.4 48.9 34 -5.5 22.1 9.78 0.385
19:58 1005 29.68 834 24.63 9.3 48.8 34 -5.8 21.6 9.77 0.385
19:59 1005 29.68 834 24.63 9.4 48.9 33 -5.9 21.4 9.76 0.384
20:00 1005 29.68 834 24.63 9.4 48.9 34 -5.8 21.6 9.77 0.385
20:01 1005 29.68 834 24.63 9.4 48.9 33 -6.1 21.1 9.76 0.384
20:02 1005 29.68 834 24.63 9.4 49 34 -5.5 22.2 9.84 0.387
20:03 1005 29.68 834 24.63 9.3 48.8 37 -4.7 23.6 9.75 0.384
20:04 1005 29.68 834 24.63 9 48.3 36 -5.1 22.8 9.44 0.372
20:05 1005 29.68 834 24.63 8.9 47.9 37 -5 22.9 9.28 0.365
20:06 1005 29.68 834 24.63 8.7 47.7 38 -5 23.1 9.11 0.359
20:07 1005 29.68 834 24.63 8.6 47.4 38 -5 23 8.94 0.352
20:08 1005 29.68 834 24.63 8.5 47.2 39 -4.8 23.4 8.83 0.348
20:09 1005 29.68 834 24.63 8.3 47 39 -4.9 23.2 8.8 0.346
20:10 1005 29.68 834 24.63 8.2 46.8 39 -5 23 8.61 0.339
20:11 1005 29.68 834 24.63 8.2 46.7 37 -5.6 21.9 8.55 0.337
20:12 1005 29.68 834 24.63 8.3 46.9 37 -5.7 21.7 8.65 0.341
20:13 1005 29.68 834 24.63 8.4 47.1 36 -5.7 21.8 8.79 0.346
20:14 1005 29.68 834 24.63 8.5 47.3 37 -5.3 22.5 8.85 0.348
20:15 1005 29.68 834 24.63 8.5 47.2 35 -6 21.2 8.85 0.348
20:16 1005 29.68 834 24.63 8.6 47.5 35 -6 21.2 8.99 0.354
20:17 1005 29.68 834 24.63 8.8 47.8 34 -6.2 20.8 9.13 0.359
20:18 1005 29.68 834 24.63 8.9 48 34 -6.1 21 9.23 0.363
20:19 1005 29.68 834 24.63 8.9 48 35 -5.7 21.8 9.29 0.366
20:20 1005 29.68 834 24.63 8.8 47.8 34 -6.1 21 9.24 0.364
20:21 1005 29.68 834 24.63 8.8 47.9 34 -6 21.2 9.24 0.364
20:22 1005 29.68 834 24.63 8.9 48 35 -5.6 21.9 9.27 0.365
20:23 1005 29.68 834 24.63 8.8 47.8 35 -5.7 21.7 9.19 0.362
20:24 1005 29.68 834 24.63 8.8 47.8 35 -6 21.2 9.19 0.362
20:25 1005 29.68 834 24.63 8.8 47.8 35 -5.7 21.8 9.14 0.36
20:26 1005 29.68 834 24.63 8.7 47.6 35 -5.8 21.6 9.04 0.356
20:27 1005 29.68 834 24.63 8.7 47.6 34 -6.1 20.9 9.06 0.357
20:28 1005 29.68 834 24.63 8.6 47.6 34 -6.5 20.3 9.03 0.356
20:29 1005 29.68 834 24.63 8.7 47.7 34 -6.3 20.7 9.12 0.359
20:30 1005 29.68 834 24.63 8.7 47.7 34 -6.2 20.9 9.11 0.359
20:31 1005 29.68 834 24.63 8.7 47.6 35 -5.8 21.5 9.07 0.357
20:32 1005 29.68 834 24.63 8.6 47.4 35 -6.2 20.9 8.95 0.352
20:33 1005 29.68 834 24.63 8.5 47.3 35 -6.2 20.9 8.9 0.35
20:34 1004 29.65 834 24.63 8.5 47.3 34 -6.4 20.5 8.85 0.348
20:35 1004 29.65 834 24.63 8.5 47.4 33 -6.7 20 8.91 0.351
20:36 1004 29.65 834 24.63 8.6 47.5 34 -6.4 20.5 8.97 0.353
20:37 1004 29.65 834 24.63 8.6 47.4 34 -6.2 20.8 8.95 0.352
20:38 1004 29.65 834 24.63 8.5 47.4 33 -6.8 19.8 8.92 0.351
20:39 1004 29.65 834 24.63 8.6 47.5 33 -6.9 19.5 8.99 0.354
20:40 1004 29.65 834 24.63 8.7 47.6 33 -6.9 19.6 9.08 0.357
20:41 1004 29.65 834 24.63 8.7 47.7 33 -6.8 19.7 9.12 0.359
20:42 1004 29.65 834 24.63 8.7 47.7 33 -6.8 19.7 9.12 0.359
20:43 1005 29.68 834 24.63 8.7 47.6 33 -6.5 20.2 9.1 0.358
20:44 1005 29.68 834 24.63 8.6 47.4 33 -6.8 19.7 8.99 0.354
20:45 1005 29.68 834 24.63 8.6 47.4 33 -6.7 19.9 8.98 0.354
20:46 1005 29.68 834 24.63 8.6 47.5 32 -7 19.4 9.01 0.355
20:47 1005 29.68 834 24.63 8.6 47.5 33 -6.8 19.7 9.03 0.356
20:48 1005 29.68 834 24.63 8.6 47.4 33 -6.7 19.9 8.95 0.352
20:49 1005 29.68 834 24.63 8.5 47.2 33 -7 19.3 8.88 0.35
20:50 1005 29.68 834 24.63 8.5 47.4 32 -7.1 19.2 8.94 0.352
20:51 1005 29.68 834 24.63 8.6 47.5 32 -7.2 19 9.04 0.356
20:52 1005 29.68 834 24.63 8.8 47.8 32 -7.1 19.2 9.14 0.36
20:53 1005 29.68 834 24.63 8.8 47.9 32 -7.1 19.3 9.18 0.361
20:54 1005 29.68 834 24.63 8.8 47.8 32 -7 19.4 9.17 0.361
20:55 1005 29.68 834 24.63 8.7 47.6 33 -6.7 20 9.06 0.357
20:56 1005 29.68 834 24.63 8.6 47.4 32 -7.3 18.9 8.99 0.354
20:57 1005 29.68 834 24.63 8.6 47.5 33 -6.7 19.9 9.04 0.356
20:58 1005 29.68 834 24.63 8.6 47.4 33 -7 19.5 8.99 0.354
20:59 1005 29.68 834 24.63 8.6 47.4 33 -6.8 19.8 8.95 0.352
21:00 1005 29.68 834 24.63 8.5 47.3 33 -7 19.5 8.91 0.351
21:01 1005 29.68 834 24.63 8.5 47.3 33 -6.8 19.7 8.88 0.35
21:02 1005 29.68 834 24.63 8.6 47.4 33 -6.9 19.5 8.93 0.352
21:03 1005 29.68 834 24.63 8.5 47.4 33 -6.8 19.7 8.93 0.352
21:04 1005 29.68 834 24.63 8.5 47.4 33 -6.7 19.9 8.91 0.351
21:05 1005 29.68 834 24.63 8.5 47.2 33 -6.8 19.8 8.86 0.349
21:06 1005 29.68 834 24.63 8.4 47.1 33 -6.8 19.8 8.84 0.348
21:07 1005 29.68 834 24.63 8.4 47.1 32 -7.2 19 8.79 0.346
21:08 1005 29.68 834 24.63 8.5 47.2 33 -7 19.3 8.86 0.349
21:09 1005 29.68 834 24.63 8.5 47.2 33 -7 19.5 8.84 0.348
21:10 1005 29.68 834 24.63 8.4 47 33 -7.1 19.2 8.78 0.346
21:11 1005 29.68 834 24.63 8.4 47 33 -7 19.4 8.7 0.343
21:12 1005 29.68 834 24.63 8.3 46.9 34 -6.8 19.8 8.68 0.342
21:13 1004 29.65 834 24.63 8.2 46.7 34 -6.8 19.7 8.58 0.338
21:14 1004 29.65 834 24.63 8.2 46.7 33 -7.1 19.2 8.61 0.339
21:15 1005 29.68 834 24.63 8.2 46.8 33 -7.2 19.1 8.62 0.339
21:16 1004 29.65 834 24.63 8.3 47 34 -6.8 19.8 8.71 0.343
21:17 1004 29.65 834 24.63 8.3 46.9 34 -6.8 19.8 8.68 0.342
21:18 1004 29.65 834 24.63 8.2 46.8 34 -6.8 19.8 8.61 0.339
21:19 1004 29.65 834 24.63 8.2 46.8 34 -6.9 19.7 8.6 0.339
21:20 1004 29.65 834 24.63 8.2 46.8 34 -6.8 19.7 8.64 0.34
21:21 1004 29.65 834 24.63 8.2 46.8 34 -6.7 20 8.63 0.34
21:22 1004 29.65 833 24.6 8.2 46.7 34 -6.6 20 8.54 0.336
21:23 1004 29.65 833 24.6 8.1 46.6 34 -7 19.4 8.52 0.335
21:24 1004 29.65 833 24.6 8.1 46.5 34 -6.9 19.6 8.49 0.334
21:25 1004 29.65 833 24.6 8.1 46.6 33 -7.1 19.2 8.45 0.333
21:26 1004 29.65 833 24.6 8.2 46.7 33 -7.1 19.1 8.52 0.335
21:27 1004 29.65 833 24.6 8.3 46.9 33 -7.2 19 8.69 0.342
21:28 1004 29.65 833 24.6 8.4 47.1 32 -7.2 19 8.76 0.345
21:29 1004 29.65 833 24.6 8.4 47.1 33 -6.9 19.5 8.81 0.347
21:30 1004 29.65 833 24.6 8.4 47.1 33 -6.9 19.7 8.8 0.346
21:31 1004 29.65 833 24.6 8.5 47.2 32 -7.2 19.1 8.84 0.348
21:32 1004 29.65 833 24.6 8.5 47.3 33 -6.9 19.5 8.93 0.352
21:33 1004 29.65 833 24.6 8.6 47.4 33 -6.9 19.6 8.98 0.354
21:34 1004 29.65 833 24.6 8.6 47.5 33 -6.9 19.6 8.97 0.353
21:35 1004 29.65 833 24.6 8.6 47.5 33 -6.7 19.9 9.01 0.355
21:36 1004 29.65 833 24.6 8.6 47.4 34 -6.6 20.2 8.94 0.352
21:37 1004 29.65 833 24.6 8.5 47.2 34 -6.4 20.5 8.9 0.35
21:38 1004 29.65 833 24.6 8.5 47.3 33 -7 19.4 8.83 0.348
21:39 1004 29.65 833 24.6 8.6 47.5 33 -6.7 19.9 9.01 0.355
21:40 1004 29.65 833 24.6 8.6 47.6 33 -6.8 19.8 9.03 0.356
21:41 1004 29.65 833 24.6 8.6 47.5 33 -6.8 19.8 9.01 0.355
21:42 1004 29.65 833 24.6 8.6 47.5 33 -6.9 19.5 8.99 0.354
21:43 1004 29.65 833 24.6 8.6 47.5 33 -6.7 20 9.01 0.355
21:44 1004 29.65 833 24.6 8.7 47.6 33 -6.6 20.1 9.03 0.356
21:45 1004 29.65 833 24.6 8.7 47.6 33 -6.7 19.9 9.06 0.357
21:46 1004 29.65 833 24.6 8.7 47.6 33 -6.8 19.7 9.07 0.357
21:47 1004 29.65 833 24.6 8.6 47.6 34 -6.4 20.4 9.04 0.356
21:48 1004 29.65 833 24.6 8.6 47.4 33 -6.7 20 8.98 0.354
21:49 1004 29.65 833 24.6 8.6 47.5 33 -6.9 19.6 9 0.354
21:50 1004 29.65 833 24.6 8.7 47.6 33 -6.7 19.9 9.08 0.357
21:51 1004 29.65 833 24.6 8.7 47.6 34 -6.2 20.9 9.04 0.356
21:52 1004 29.65 833 24.6 8.6 47.4 34 -6.6 20.1 8.94 0.352
21:53 1004 29.65 833 24.6 8.6 47.5 33 -6.7 19.9 8.98 0.354
21:54 1004 29.65 833 24.6 8.6 47.5 35 -6.1 21.1 8.99 0.354
21:55 1004 29.65 833 24.6 8.5 47.3 34 -6.5 20.3 8.89 0.35
21:56 1004 29.65 833 24.6 8.4 47.2 33 -7.1 19.3 8.85 0.348
21:57 1004 29.65 833 24.6 8.6 47.4 33 -6.9 19.6 8.95 0.352
21:58 1004 29.65 833 24.6 8.5 47.4 33 -6.8 19.8 8.91 0.351
21:59 1004 29.65 833 24.6 8.6 47.4 34 -6.5 20.4 8.93 0.352
22:00 1004 29.65 833 24.6 8.5 47.2 34 -6.3 20.6 8.9 0.35
22:01 1004 29.65 833 24.6 8.4 47 34 -6.5 20.3 8.8 0.346
22:02 1004 29.65 833 24.6 8.4 47.1 34 -6.4 20.5 8.81 0.347
22:03 1004 29.65 833 24.6 8.4 47.1 34 -6.7 19.9 8.81 0.347
22:04 1004 29.65 833 24.6 8.5 47.3 34 -6.5 20.3 8.87 0.349
22:05 1004 29.65 833 24.6 8.5 47.2 34 -6.6 20.2 8.83 0.348
22:06 1004 29.65 833 24.6 8.4 47.2 34 -6.5 20.3 8.85 0.348
22:07 1004 29.65 833 24.6 8.4 47.1 34 -6.5 20.3 8.82 0.347
22:08 1004 29.65 833 24.6 8.4 47.2 35 -6.2 20.8 8.83 0.348
22:09 1004 29.65 833 24.6 8.4 47.1 34 -6.6 20.2 8.81 0.347
22:10 1004 29.65 833 24.6 8.4 47.1 35 -6.3 20.7 8.83 0.348
22:11 1004 29.65 833 24.6 8.5 47.2 34 -6.6 20 8.81 0.347
22:12 1004 29.65 833 24.6 8.5 47.4 35 -6.2 20.9 8.89 0.35
22:13 1004 29.65 833 24.6 8.5 47.2 34 -6.4 20.4 8.85 0.348
22:14 1004 29.65 833 24.6 8.4 47.2 34 -6.4 20.5 8.83 0.348
22:15 1004 29.65 834 24.63 8.4 47.2 34 -6.5 20.4 8.81 0.347
22:16 1004 29.65 834 24.63 8.4 47.2 35 -6.3 20.7 8.85 0.348
22:17 1004 29.65 834 24.63 8.4 47.1 37 -5.5 22.1 8.8 0.346
22:18 1004 29.65 834 24.63 8.2 46.8 36 -5.9 21.4 8.64 0.34
22:19 1004 29.65 834 24.63 8.1 46.6 37 -5.9 21.5 8.52 0.335
22:20 1004 29.65 834 24.63 8.1 46.5 37 -5.6 21.9 8.47 0.333
22:21 1004 29.65 834 24.63 8 46.4 36 -6 21.2 8.42 0.331
22:22 1004 29.65 834 24.63 8 46.5 37 -5.8 21.6 8.41 0.331
22:23 1004 29.65 834 24.63 8 46.5 36 -6 21.3 8.42 0.331
22:24 1004 29.65 833 24.6 8 46.4 37 -5.9 21.3 8.38 0.33
22:25 1004 29.65 833 24.6 8 46.5 37 -5.9 21.4 8.41 0.331
22:26 1004 29.65 833 24.6 8.1 46.5 37 -5.8 21.6 8.44 0.332
22:27 1004 29.65 833 24.6 8 46.4 37 -5.7 21.8 8.38 0.33
22:28 1004 29.65 834 24.63 7.9 46.2 38 -5.6 21.9 8.33 0.328
22:29 1004 29.65 833 24.6 7.8 46.1 38 -5.8 21.6 8.29 0.326
22:30 1004 29.65 833 24.6 8 46.3 38 -5.5 22.1 8.3 0.327
22:31 1004 29.65 833 24.6 7.9 46.3 37 -5.8 21.6 8.3 0.327
22:32 1004 29.65 834 24.63 7.9 46.3 39 -5.2 22.7 8.32 0.328
22:33 1004 29.65 834 24.63 7.9 46.2 38 -5.7 21.8 8.3 0.327
22:34 1004 29.65 834 24.63 7.9 46.3 38 -5.4 22.2 8.28 0.326
22:35 1004 29.65 834 24.63 8 46.3 37 -5.8 21.5 8.34 0.328
22:36 1004 29.65 834 24.63 8 46.4 38 -5.6 22 8.37 0.33
22:37 1004 29.65 834 24.63 8 46.3 37 -6 21.2 8.37 0.33
22:38 1004 29.65 834 24.63 8 46.4 38 -5.3 22.4 8.35 0.329
22:39 1004 29.65 834 24.63 7.9 46.2 39 -5.3 22.4 8.35 0.329
22:40 1004 29.65 834 24.63 7.9 46.1 38 -5.6 21.9 8.28 0.326
22:41 1004 29.65 834 24.63 7.9 46.1 39 -5.2 22.6 8.27 0.326
22:42 1005 29.68 834 24.63 7.8 46.1 39 -5.4 22.3 8.17 0.322
22:43 1005 29.68 834 24.63 7.7 45.9 40 -5.1 22.8 8.15 0.321
22:44 1005 29.68 834 24.63 7.6 45.7 40 -5.2 22.6 8.04 0.317
22:45 1005 29.68 834 24.63 7.6 45.7 40 -5 22.9 7.99 0.315
22:46 1005 29.68 834 24.63 7.6 45.6 40 -5 23 7.95 0.313
22:47 1005 29.68 834 24.63 7.5 45.5 41 -5 23 7.92 0.312
22:48 1005 29.68 834 24.63 7.4 45.4 41 -4.8 23.3 7.86 0.309
22:49 1005 29.68 834 24.63 7.4 45.3 41 -5 23 7.8 0.307
22:50 1005 29.68 834 24.63 7.4 45.2 42 -4.7 23.5 7.74 0.305
22:51 1005 29.68 834 24.63 7.3 45.1 41 -5.1 22.9 7.7 0.303
22:52 1005 29.68 834 24.63 7.3 45.1 42 -4.9 23.1 7.7 0.303
22:53 1005 29.68 834 24.63 7.3 45.2 41 -5 23 7.7 0.303
22:54 1005 29.68 834 24.63 7.3 45.1 42 -4.7 23.5 7.69 0.303
22:55 1005 29.68 834 24.63 7.3 45.1 43 -4.6 23.7 7.66 0.302
22:56 1005 29.68 834 24.63 7.2 45 43 -4.4 24.1 7.61 0.3
22:57 1005 29.68 834 24.63 7.1 44.8 43 -4.5 24 7.54 0.297
22:58 1005 29.68 834 24.63 7.1 44.7 43 -4.6 23.6 7.49 0.295
22:59 1005 29.68 834 24.63 7.1 44.7 42 -4.9 23.1 7.47 0.294
23:00 1005 29.68 834 24.63 7.1 44.7 43 -4.5 23.9 7.46 0.294
23:01 1005 29.68 834 24.63 7.1 44.7 44 -4.3 24.2 7.46 0.294
23:02 1005 29.68 834 24.63 7 44.6 43 -4.8 23.4 7.38 0.291
23:03 1005 29.68 834 24.63 7 44.6 43 -4.8 23.3 7.4 0.291
23:04 1005 29.68 834 24.63 7.1 44.7 42 -4.9 23.3 7.49 0.295
23:05 1005 29.68 834 24.63 7.2 44.9 43 -4.7 23.6 7.53 0.296
23:06 1005 29.68 834 24.63 7.1 44.8 42 -4.9 23.2 7.52 0.296
23:07 1005 29.68 834 24.63 7.1 44.8 42 -4.9 23.2 7.53 0.296
23:08 1005 29.68 834 24.63 7.3 45.1 41 -5.2 22.6 7.6 0.299
23:09 1005 29.68 834 24.63 7.4 45.4 42 -4.6 23.7 7.83 0.308
23:10 1005 29.68 834 24.63 7.5 45.5 43 -4.4 24.2 7.86 0.309
23:11 1005 29.68 834 24.63 7.4 45.4 43 -4.3 24.2 7.82 0.308
23:12 1005 29.68 834 24.63 7.4 45.3 43 -4.4 24.2 7.81 0.307
23:13 1005 29.68 834 24.63 7.3 45.2 43 -4.4 24.1 7.74 0.305
23:14 1005 29.68 834 24.63 7.3 45.1 44 -4.1 24.6 7.66 0.302
23:15 1005 29.68 834 24.63 7.2 44.9 45 -4.1 24.6 7.59 0.299
23:16 1005 29.68 834 24.63 7.1 44.8 46 -3.7 25.3 7.48 0.294
23:17 1005 29.68 835 24.66 6.9 44.5 48 -3.4 25.9 7.34 0.289
23:18 1005 29.68 835 24.66 6.8 44.2 49 -3.3 26.1 7.19 0.283
23:19 1005 29.68 835 24.66 6.6 43.9 48 -3.5 25.6 7.05 0.278
23:20 1005 29.68 835 24.66 6.5 43.7 49 -3.3 26.1 6.923 0.273
23:21 1006 29.71 835 24.66 6.4 43.6 49 -3.4 25.9 6.867 0.27
23:22 1006 29.71 835 24.66 6.4 43.5 50 -3.3 26.1 6.776 0.267
23:23 1006 29.71 835 24.66 6.3 43.3 51 -3.2 26.3 6.708 0.264
23:24 1006 29.71 835 24.66 6.2 43.2 51 -3 26.5 6.646 0.262
23:25 1006 29.71 835 24.66 6.2 43.1 51 -3.1 26.4 6.578 0.259
23:26 1006 29.71 835 24.66 6.1 43 51 -3.1 26.4 6.511 0.256
23:27 1006 29.71 835 24.66 6.1 42.9 51 -3.2 26.3 6.488 0.255
23:28 1006 29.71 835 24.66 6 42.9 53 -2.8 26.9 6.454 0.254
23:29 1006 29.71 835 24.66 5.9 42.6 54 -2.7 27.2 6.307 0.248
23:30 1006 29.71 835 24.66 5.8 42.5 54 -2.8 26.9 6.222 0.245
23:31 1006 29.71 835 24.66 5.7 42.3 54 -2.8 27 6.171 0.243
23:32 1006 29.71 835 24.66 5.7 42.3 54 -2.8 27 6.143 0.242
23:33 1006 29.71 835 24.66 5.6 42.2 55 -2.7 27.1 6.069 0.239
23:34 1006 29.71 835 24.66 5.6 42 56 -2.5 27.5 6.019 0.237
23:35 1006 29.71 836 24.69 5.5 42 56 -2.6 27.4 5.951 0.234
23:36 1006 29.71 836 24.69 5.5 41.9 56 -2.5 27.5 5.917 0.233
23:37 1006 29.71 836 24.69 5.4 41.8 57 -2.5 27.6 5.843 0.23
23:38 1006 29.71 836 24.69 5.4 41.7 57 -2.4 27.7 5.855 0.231
23:39 1007 29.74 836 24.69 5.4 41.6 58 -2.2 28.1 5.77 0.227
23:40 1007 29.74 836 24.69 5.2 41.4 59 -2.1 28.2 5.685 0.224
23:41 1007 29.74 836 24.69 5.2 41.3 60 -1.9 28.6 5.572 0.219
23:42 1007 29.74 836 24.69 5.1 41.1 61 -1.8 28.8 5.47 0.215
23:43 1007 29.74 836 24.69 5 40.9 62 -1.7 29 5.379 0.212
23:44 1007 29.74 836 24.69 4.9 40.7 63 -1.5 29.3 5.278 0.208
23:45 1007 29.74 836 24.69 4.7 40.5 65 -1.2 29.8 5.17 0.204
23:46 1007 29.74 836 24.69 4.6 40.2 71 -0.2 31.6 5.04 0.198
23:47 1007 29.74 836 24.69 4.2 39.5 76 0.4 32.6 4.684 0.184
23:48 1007 29.74 836 24.69 3.7 38.7 78 0.3 32.5 4.299 0.169
23:49 1007 29.74 836 24.69 3.6 38.4 81 0.6 33 4 0.157
23:50 1007 29.74 836 24.69 3.3 38 82 0.5 33 3.79 0.149
23:51 1007 29.74 836 24.69 3.1 37.6 86 1 33.7 3.57 0.141
23:52 1007 29.74 836 24.69 2.8 37.1 87 0.9 33.6 3.355 0.132
23:53 1007 29.74 836 24.69 2.6 36.7 89 0.9 33.6 3.089 0.122
23:54 1007 29.74 836 24.69 2.3 36.2 89 0.8 33.4 2.834 0.112
23:55 1007 29.74 836 24.69 2.1 35.8 91 0.8 33.4 2.665 0.105
23:56 1007 29.74 836 24.69 1.9 35.5 91 0.7 33.2 2.518 0.099
23:57 1007 29.74 836 24.69 1.9 35.4 92 0.7 33.3 2.399 0.094
23:58 1007 29.74 836 24.69 1.9 35.4 93 0.8 33.4 2.365 0.093
23:59 1007 29.74 836 24.69 1.8 35.3 93 0.7 33.3 2.36 0.093
24:00 1007 29.74 836 24.69 1.8 35.3 93 0.8 33.4 2.338 0.092